<?xml version="1.0" encoding="UTF-8" standalone="yes"?>
<gpx xmlns="http://www.topografix.com/GPX/1/1" xmlns:gpxtrx="http://www.garmin.com/xmlschemas/GpxExtensions/v3" xmlns:rcxx="http://www.routeconverter.de/xmlschemas/RouteCatalogExtensions/1.0" xmlns:xsi="http://www.w3.org/2001/XMLSchema-instance" xmlns:gpxtpx="http://www.garmin.com/xmlschemas/TrackPointExtension/v1" xmlns:gpxx="http://www.garmin.com/xmlschemas/WaypointExtension/v1" xmlns:nmea="http://trekbuddy.net/2009/01/gpx/nmea" creator="Generated by Christian Pesch's RouteConverter. See http://www.routeconverter.com" version="1.1">
    <metadata>
        <link href="http://www.gpsinformation.org/ronh/g7towin.htm">
            <text>G7ToWin</text>
        </link>
        <time>2011-05-27T16:39:45Z</time>
        <bounds maxlon="5.23307561874390" maxlat="43.94584894180298" minlon="5.22037267684937" minlat="43.91078710556030"/>
    </metadata>
    <trk>
        <name>ACTIVE LOG</name>
        <type>Track black</type>
        <extensions>
            <ns8:line xmlns:ns8="http://www.topografix.com/GPX/gpx_style/0/2" xmlns="http://www.topografix.com/GPX/gpx_style/0/2" xmlns:gpxx="http://www.garmin.com/xmlschemas/GpxExtensions/v3">
                <color>000000</color>
      </ns8:line>
            <gpxtrx:TrackExtension>
                <gpxtrx:DisplayColor>Black</gpxtrx:DisplayColor>
            </gpxtrx:TrackExtension>
        </extensions>
        <trkseg>
            <trkpt lon="5.22998571395874" lat="43.9107871055603">
                <ele>197.20752</ele>
                <time>2011-05-29T09:51:05.000Z</time>
                <name>Position 1</name>
            </trkpt>
            <trkpt lon="5.22998571395874" lat="43.91080856323242">
                <ele>197.20752</ele>
                <time>2011-05-29T09:51:29.000Z</time>
                <name>Position 2</name>
            </trkpt>
            <trkpt lon="5.22998571395874" lat="43.91087293624878">
                <ele>196.726929</ele>
                <time>2011-05-29T09:51:37.000Z</time>
                <name>Position 3</name>
            </trkpt>
            <trkpt lon="5.22996425628662" lat="43.91098022460938">
                <ele>194.804321</ele>
                <time>2011-05-29T09:51:47.000Z</time>
                <name>Position 4</name>
            </trkpt>
            <trkpt lon="5.22996425628662" lat="43.91102313995361">
                <ele>194.32373</ele>
                <time>2011-05-29T09:51:52.000Z</time>
                <name>Position 5</name>
            </trkpt>
            <trkpt lon="5.2299427986145" lat="43.91110897064209">
                <ele>192.881714</ele>
                <time>2011-05-29T09:52:02.000Z</time>
                <name>Position 6</name>
            </trkpt>
            <trkpt lon="5.22987842559814" lat="43.91125917434692">
                <ele>190.478394</ele>
                <time>2011-05-29T09:52:17.000Z</time>
                <name>Position 7</name>
            </trkpt>
            <trkpt lon="5.22987842559814" lat="43.91143083572388">
                <ele>189.036377</ele>
                <time>2011-05-29T09:52:29.000Z</time>
                <name>Position 8</name>
            </trkpt>
            <trkpt lon="5.22987842559814" lat="43.91158103942871">
                <ele>187.11377</ele>
                <time>2011-05-29T09:52:41.000Z</time>
                <name>Position 9</name>
            </trkpt>
            <trkpt lon="5.22992134094238" lat="43.91170978546143">
                <ele>184.710571</ele>
                <time>2011-05-29T09:52:51.000Z</time>
                <name>Position 10</name>
            </trkpt>
            <trkpt lon="5.2299427986145" lat="43.91181707382202">
                <ele>182.307129</ele>
                <time>2011-05-29T09:53:00.000Z</time>
                <name>Position 11</name>
            </trkpt>
            <trkpt lon="5.2299427986145" lat="43.91183853149414">
                <ele>181.826416</ele>
                <time>2011-05-29T09:53:02.000Z</time>
                <name>Position 12</name>
            </trkpt>
            <trkpt lon="5.22996425628662" lat="43.91188144683838">
                <ele>180.865234</ele>
                <time>2011-05-29T09:53:05.000Z</time>
                <name>Position 13</name>
            </trkpt>
            <trkpt lon="5.23000717163086" lat="43.91192436218262">
                <ele>178.942627</ele>
                <time>2011-05-29T09:53:09.000Z</time>
                <name>Position 14</name>
            </trkpt>
            <trkpt lon="5.23000717163086" lat="43.91207456588745">
                <ele>175.577881</ele>
                <time>2011-05-29T09:53:19.000Z</time>
                <name>Position 15</name>
            </trkpt>
            <trkpt lon="5.22996425628662" lat="43.91218185424805">
                <ele>174.135864</ele>
                <time>2011-05-29T09:53:27.000Z</time>
                <name>Position 16</name>
            </trkpt>
            <trkpt lon="5.22985696792603" lat="43.91233205795288">
                <ele>173.174683</ele>
                <time>2011-05-29T09:53:40.000Z</time>
                <name>Position 17</name>
            </trkpt>
            <trkpt lon="5.22974967956543" lat="43.91243934631348">
                <ele>173.655273</ele>
                <time>2011-05-29T09:53:51.000Z</time>
                <name>Position 18</name>
            </trkpt>
            <trkpt lon="5.22968530654907" lat="43.91254663467407">
                <ele>174.616577</ele>
                <time>2011-05-29T09:53:59.000Z</time>
                <name>Position 19</name>
            </trkpt>
            <trkpt lon="5.22964239120483" lat="43.91267538070679">
                <ele>176.058594</ele>
                <time>2011-05-29T09:54:08.000Z</time>
                <name>Position 20</name>
            </trkpt>
            <trkpt lon="5.22962093353271" lat="43.91284704208374">
                <ele>179.903809</ele>
                <time>2011-05-29T09:54:19.000Z</time>
                <name>Position 21</name>
            </trkpt>
            <trkpt lon="5.2295994758606" lat="43.9129114151001">
                <ele>181.345825</ele>
                <time>2011-05-29T09:54:24.000Z</time>
                <name>Position 22</name>
            </trkpt>
            <trkpt lon="5.22957801818848" lat="43.91308307647705">
                <ele>178.461914</ele>
                <time>2011-05-29T09:54:38.000Z</time>
                <name>Position 23</name>
            </trkpt>
            <trkpt lon="5.22957801818848" lat="43.91312599182129">
                <ele>177.50061</ele>
                <time>2011-05-29T09:54:42.000Z</time>
                <name>Position 24</name>
            </trkpt>
            <trkpt lon="5.22951364517212" lat="43.91323328018189">
                <ele>176.539307</ele>
                <time>2011-05-29T09:54:52.000Z</time>
                <name>Position 25</name>
            </trkpt>
            <trkpt lon="5.2294921875" lat="43.91331911087036">
                <ele>179.423218</ele>
                <time>2011-05-29T09:55:17.000Z</time>
                <name>Position 26</name>
            </trkpt>
            <trkpt lon="5.22942781448364" lat="43.91331911087036">
                <ele>184.229858</ele>
                <time>2011-05-29T09:55:46.000Z</time>
                <name>Position 27</name>
            </trkpt>
            <trkpt lon="5.22942781448364" lat="43.91329765319824">
                <ele>189.997681</ele>
                <time>2011-05-29T09:56:28.000Z</time>
                <name>Position 28</name>
            </trkpt>
            <trkpt lon="5.22940635681152" lat="43.91331911087036">
                <ele>196.246338</ele>
                <time>2011-05-29T09:56:33.000Z</time>
                <name>Position 29</name>
            </trkpt>
            <trkpt lon="5.22927761077881" lat="43.91349077224731">
                <ele>200.091675</ele>
                <time>2011-05-29T09:56:52.000Z</time>
                <name>Position 30</name>
            </trkpt>
            <trkpt lon="5.22917032241821" lat="43.91364097595215">
                <ele>201.052856</ele>
                <time>2011-05-29T09:57:07.000Z</time>
                <name>Position 31</name>
            </trkpt>
            <trkpt lon="5.2290415763855" lat="43.91376972198486">
                <ele>202.494873</ele>
                <time>2011-05-29T09:57:20.000Z</time>
                <name>Position 32</name>
            </trkpt>
            <trkpt lon="5.2289342880249" lat="43.91389846801758">
                <ele>203.93689</ele>
                <time>2011-05-29T09:57:34.000Z</time>
                <name>Position 33</name>
            </trkpt>
            <trkpt lon="5.22884845733643" lat="43.91400575637817">
                <ele>203.93689</ele>
                <time>2011-05-29T09:57:48.000Z</time>
                <name>Position 34</name>
            </trkpt>
            <trkpt lon="5.22871971130371" lat="43.91413450241089">
                <ele>203.456177</ele>
                <time>2011-05-29T09:58:01.000Z</time>
                <name>Position 35</name>
            </trkpt>
            <trkpt lon="5.22865533828735" lat="43.91422033309937">
                <ele>203.456177</ele>
                <time>2011-05-29T09:58:10.000Z</time>
                <name>Position 36</name>
            </trkpt>
            <trkpt lon="5.22856950759888" lat="43.91439199447632">
                <ele>203.93689</ele>
                <time>2011-05-29T09:58:22.000Z</time>
                <name>Position 37</name>
            </trkpt>
            <trkpt lon="5.22852659225464" lat="43.91449928283691">
                <ele>204.41748</ele>
                <time>2011-05-29T09:58:28.000Z</time>
                <name>Position 38</name>
            </trkpt>
            <trkpt lon="5.22850513458252" lat="43.91467094421387">
                <ele>205.378784</ele>
                <time>2011-05-29T09:58:41.000Z</time>
                <name>Position 39</name>
            </trkpt>
            <trkpt lon="5.22850513458252" lat="43.91486406326294">
                <ele>205.859497</ele>
                <time>2011-05-29T09:58:57.000Z</time>
                <name>Position 40</name>
            </trkpt>
            <trkpt lon="5.22850513458252" lat="43.91501426696777">
                <ele>205.378784</ele>
                <time>2011-05-29T09:59:08.000Z</time>
                <name>Position 41</name>
            </trkpt>
            <trkpt lon="5.22852659225464" lat="43.91510009765625">
                <ele>204.898071</ele>
                <time>2011-05-29T09:59:16.000Z</time>
                <name>Position 42</name>
            </trkpt>
            <trkpt lon="5.22852659225464" lat="43.91525030136108">
                <ele>204.898071</ele>
                <time>2011-05-29T09:59:27.000Z</time>
                <name>Position 43</name>
            </trkpt>
            <trkpt lon="5.2284836769104" lat="43.91546487808228">
                <ele>204.41748</ele>
                <time>2011-05-29T09:59:40.000Z</time>
                <name>Position 44</name>
            </trkpt>
            <trkpt lon="5.22846221923828" lat="43.91555070877075">
                <ele>203.456177</ele>
                <time>2011-05-29T09:59:49.000Z</time>
                <name>Position 45</name>
            </trkpt>
            <trkpt lon="5.22844076156616" lat="43.91565799713135">
                <ele>202.494873</ele>
                <time>2011-05-29T09:59:59.000Z</time>
                <name>Position 46</name>
            </trkpt>
            <trkpt lon="5.22844076156616" lat="43.91576528549194">
                <ele>202.014282</ele>
                <time>2011-05-29T10:00:07.000Z</time>
                <name>Position 47</name>
            </trkpt>
            <trkpt lon="5.22839784622192" lat="43.91580820083618">
                <ele>202.494873</ele>
                <time>2011-05-29T10:00:16.000Z</time>
                <name>Position 48</name>
            </trkpt>
            <trkpt lon="5.22839784622192" lat="43.91580820083618">
                <ele>202.014282</ele>
                <time>2011-05-29T10:00:56.000Z</time>
                <name>Position 49</name>
            </trkpt>
            <trkpt lon="5.22839784622192" lat="43.91587257385254">
                <ele>201.533569</ele>
                <time>2011-05-29T10:01:18.000Z</time>
                <name>Position 50</name>
            </trkpt>
            <trkpt lon="5.22829055786133" lat="43.91597986221314">
                <ele>203.456177</ele>
                <time>2011-05-29T10:01:49.000Z</time>
                <name>Position 51</name>
            </trkpt>
            <trkpt lon="5.22822618484497" lat="43.91606569290161">
                <ele>204.41748</ele>
                <time>2011-05-29T10:01:58.000Z</time>
                <name>Position 52</name>
            </trkpt>
            <trkpt lon="5.22809743881226" lat="43.91619443893433">
                <ele>202.494873</ele>
                <time>2011-05-29T10:02:16.000Z</time>
                <name>Position 53</name>
            </trkpt>
            <trkpt lon="5.22801160812378" lat="43.91634464263916">
                <ele>202.494873</ele>
                <time>2011-05-29T10:02:33.000Z</time>
                <name>Position 54</name>
            </trkpt>
            <trkpt lon="5.22805452346802" lat="43.91634464263916">
                <ele>204.898071</ele>
                <time>2011-05-29T10:09:48.000Z</time>
                <name>Position 55</name>
            </trkpt>
            <trkpt lon="5.22811889648438" lat="43.91643047332764">
                <ele>202.014282</ele>
                <time>2011-05-29T10:10:31.000Z</time>
                <name>Position 56</name>
            </trkpt>
            <trkpt lon="5.22816181182861" lat="43.91651630401611">
                <ele>203.456177</ele>
                <time>2011-05-29T10:10:43.000Z</time>
                <name>Position 57</name>
            </trkpt>
            <trkpt lon="5.22814035415649" lat="43.91658067703247">
                <ele>203.456177</ele>
                <time>2011-05-29T10:10:52.000Z</time>
                <name>Position 58</name>
            </trkpt>
            <trkpt lon="5.22811889648438" lat="43.91666650772095">
                <ele>203.456177</ele>
                <time>2011-05-29T10:11:03.000Z</time>
                <name>Position 59</name>
            </trkpt>
            <trkpt lon="5.22809743881226" lat="43.91670942306519">
                <ele>202.975464</ele>
                <time>2011-05-29T10:11:09.000Z</time>
                <name>Position 60</name>
            </trkpt>
            <trkpt lon="5.22805452346802" lat="43.91679525375366">
                <ele>202.494873</ele>
                <time>2011-05-29T10:11:18.000Z</time>
                <name>Position 61</name>
            </trkpt>
            <trkpt lon="5.2280330657959" lat="43.91690254211426">
                <ele>202.014282</ele>
                <time>2011-05-29T10:11:28.000Z</time>
                <name>Position 62</name>
            </trkpt>
            <trkpt lon="5.2280330657959" lat="43.91700983047485">
                <ele>200.091675</ele>
                <time>2011-05-29T10:11:47.000Z</time>
                <name>Position 63</name>
            </trkpt>
            <trkpt lon="5.22801160812378" lat="43.91709566116333">
                <ele>201.533569</ele>
                <time>2011-05-29T10:12:00.000Z</time>
                <name>Position 64</name>
            </trkpt>
            <trkpt lon="5.22796869277954" lat="43.91720294952393">
                <ele>202.014282</ele>
                <time>2011-05-29T10:12:14.000Z</time>
                <name>Position 65</name>
            </trkpt>
            <trkpt lon="5.2279257774353" lat="43.91731023788452">
                <ele>202.494873</ele>
                <time>2011-05-29T10:12:35.000Z</time>
                <name>Position 66</name>
            </trkpt>
            <trkpt lon="5.22783994674683" lat="43.91735315322876">
                <ele>202.975464</ele>
                <time>2011-05-29T10:12:50.000Z</time>
                <name>Position 67</name>
            </trkpt>
            <trkpt lon="5.22779703140259" lat="43.917396068573">
                <ele>203.456177</ele>
                <time>2011-05-29T10:13:00.000Z</time>
                <name>Position 68</name>
            </trkpt>
            <trkpt lon="5.22777557373047" lat="43.91746044158936">
                <ele>204.41748</ele>
                <time>2011-05-29T10:13:15.000Z</time>
                <name>Position 69</name>
            </trkpt>
            <trkpt lon="5.22779703140259" lat="43.91758918762207">
                <ele>201.052856</ele>
                <time>2011-05-29T10:13:57.000Z</time>
                <name>Position 70</name>
            </trkpt>
            <trkpt lon="5.22783994674683" lat="43.9177393913269">
                <ele>194.32373</ele>
                <time>2011-05-29T10:14:26.000Z</time>
                <name>Position 71</name>
            </trkpt>
            <trkpt lon="5.22783994674683" lat="43.91786813735962">
                <ele>192.881714</ele>
                <time>2011-05-29T10:15:02.000Z</time>
                <name>Position 72</name>
            </trkpt>
            <trkpt lon="5.22771120071411" lat="43.91812562942505">
                <ele>201.533569</ele>
                <time>2011-05-29T10:17:36.000Z</time>
                <name>Position 73</name>
            </trkpt>
            <trkpt lon="5.22756099700928" lat="43.91823291778565">
                <ele>207.782104</ele>
                <time>2011-05-29T10:18:32.000Z</time>
                <name>Position 74</name>
            </trkpt>
            <trkpt lon="5.22751808166504" lat="43.91823291778565">
                <ele>209.704834</ele>
                <time>2011-05-29T10:18:54.000Z</time>
                <name>Position 75</name>
            </trkpt>
            <trkpt lon="5.22745370864868" lat="43.91827583312988">
                <ele>211.146729</ele>
                <time>2011-05-29T10:19:15.000Z</time>
                <name>Position 76</name>
            </trkpt>
            <trkpt lon="5.22738933563232" lat="43.91831874847412">
                <ele>213.550049</ele>
                <time>2011-05-29T10:19:59.000Z</time>
                <name>Position 77</name>
            </trkpt>
            <trkpt lon="5.22738933563232" lat="43.91834020614624">
                <ele>214.991943</ele>
                <time>2011-05-29T10:20:39.000Z</time>
                <name>Position 78</name>
            </trkpt>
            <trkpt lon="5.22741079330444" lat="43.9184045791626">
                <ele>217.395386</ele>
                <time>2011-05-29T10:20:52.000Z</time>
                <name>Position 79</name>
            </trkpt>
            <trkpt lon="5.22738933563232" lat="43.91857624053955">
                <ele>213.550049</ele>
                <time>2011-05-29T10:21:51.000Z</time>
                <name>Position 80</name>
            </trkpt>
            <trkpt lon="5.22734642028809" lat="43.91864061355591">
                <ele>215.472656</ele>
                <time>2011-05-29T10:22:03.000Z</time>
                <name>Position 81</name>
            </trkpt>
            <trkpt lon="5.22736787796021" lat="43.91868352890015">
                <ele>217.395386</ele>
                <time>2011-05-29T10:22:13.000Z</time>
                <name>Position 82</name>
            </trkpt>
            <trkpt lon="5.22749662399292" lat="43.91906976699829">
                <ele>214.51123</ele>
                <time>2011-05-29T10:25:01.000Z</time>
                <name>Position 83</name>
            </trkpt>
            <trkpt lon="5.22749662399292" lat="43.91913414001465">
                <ele>214.991943</ele>
                <time>2011-05-29T10:25:18.000Z</time>
                <name>Position 84</name>
            </trkpt>
            <trkpt lon="5.22749662399292" lat="43.91917705535889">
                <ele>213.550049</ele>
                <time>2011-05-29T10:26:01.000Z</time>
                <name>Position 85</name>
            </trkpt>
            <trkpt lon="5.22743225097656" lat="43.91917705535889">
                <ele>213.069336</ele>
                <time>2011-05-29T10:26:33.000Z</time>
                <name>Position 86</name>
            </trkpt>
            <trkpt lon="5.22745370864868" lat="43.91926288604736">
                <ele>215.953247</ele>
                <time>2011-05-29T10:27:17.000Z</time>
                <name>Position 87</name>
            </trkpt>
            <trkpt lon="5.22745370864868" lat="43.91926288604736">
                <ele>215.953247</ele>
                <time>2011-05-29T10:27:21.000Z</time>
                <name>Position 88</name>
            </trkpt>
            <trkpt lon="5.22741079330444" lat="43.91932725906372">
                <ele>217.875977</ele>
                <time>2011-05-29T10:27:33.000Z</time>
                <name>Position 89</name>
            </trkpt>
            <trkpt lon="5.22743225097656" lat="43.91937017440796">
                <ele>219.317993</ele>
                <time>2011-05-29T10:27:46.000Z</time>
                <name>Position 90</name>
            </trkpt>
            <trkpt lon="5.22738933563232" lat="43.9194130897522">
                <ele>219.317993</ele>
                <time>2011-05-29T10:27:55.000Z</time>
                <name>Position 91</name>
            </trkpt>
            <trkpt lon="5.22732496261597" lat="43.91952037811279">
                <ele>215.953247</ele>
                <time>2011-05-29T10:28:13.000Z</time>
                <name>Position 92</name>
            </trkpt>
            <trkpt lon="5.22728204727173" lat="43.91954183578491">
                <ele>214.991943</ele>
                <time>2011-05-29T10:28:19.000Z</time>
                <name>Position 93</name>
            </trkpt>
            <trkpt lon="5.22721767425537" lat="43.91960620880127">
                <ele>214.51123</ele>
                <time>2011-05-29T10:28:40.000Z</time>
                <name>Position 94</name>
            </trkpt>
            <trkpt lon="5.22704601287842" lat="43.91971349716187">
                <ele>206.340088</ele>
                <time>2011-05-29T10:29:15.000Z</time>
                <name>Position 95</name>
            </trkpt>
            <trkpt lon="5.22698163986206" lat="43.91977787017822">
                <ele>204.898071</ele>
                <time>2011-05-29T10:29:28.000Z</time>
                <name>Position 96</name>
            </trkpt>
            <trkpt lon="5.22696018218994" lat="43.9198637008667">
                <ele>203.93689</ele>
                <time>2011-05-29T10:30:00.000Z</time>
                <name>Position 97</name>
            </trkpt>
            <trkpt lon="5.22696018218994" lat="43.91990661621094">
                <ele>203.93689</ele>
                <time>2011-05-29T10:30:10.000Z</time>
                <name>Position 98</name>
            </trkpt>
            <trkpt lon="5.2269172668457" lat="43.92001390457153">
                <ele>203.456177</ele>
                <time>2011-05-29T10:30:23.000Z</time>
                <name>Position 99</name>
            </trkpt>
            <trkpt lon="5.2269172668457" lat="43.92022848129273">
                <ele>199.61084</ele>
                <time>2011-05-29T10:30:56.000Z</time>
                <name>Position 100</name>
            </trkpt>
            <trkpt lon="5.22676706314087" lat="43.92046451568604">
                <ele>195.765625</ele>
                <time>2011-05-29T10:31:32.000Z</time>
                <name>Position 101</name>
            </trkpt>
            <trkpt lon="5.22674560546875" lat="43.92057180404663">
                <ele>191.439575</ele>
                <time>2011-05-29T10:31:50.000Z</time>
                <name>Position 102</name>
            </trkpt>
            <trkpt lon="5.22672414779663" lat="43.92061471939087">
                <ele>190.958984</ele>
                <time>2011-05-29T10:32:06.000Z</time>
                <name>Position 103</name>
            </trkpt>
            <trkpt lon="5.22659540176392" lat="43.92072200775147">
                <ele>186.633179</ele>
                <time>2011-05-29T10:32:39.000Z</time>
                <name>Position 104</name>
            </trkpt>
            <trkpt lon="5.22663831710815" lat="43.92070055007935">
                <ele>182.787842</ele>
                <time>2011-05-29T10:32:51.000Z</time>
                <name>Position 105</name>
            </trkpt>
            <trkpt lon="5.22655248641968" lat="43.9207649230957">
                <ele>191.920288</ele>
                <time>2011-05-29T10:35:48.000Z</time>
                <name>Position 106</name>
            </trkpt>
            <trkpt lon="5.2264666557312" lat="43.92070055007935">
                <ele>201.533569</ele>
                <time>2011-05-29T10:37:46.000Z</time>
                <name>Position 107</name>
            </trkpt>
            <trkpt lon="5.22640228271484" lat="43.92070055007935">
                <ele>202.975464</ele>
                <time>2011-05-29T10:38:00.000Z</time>
                <name>Position 108</name>
            </trkpt>
            <trkpt lon="5.22612333297729" lat="43.92093658447266">
                <ele>205.859497</ele>
                <time>2011-05-29T10:38:53.000Z</time>
                <name>Position 109</name>
            </trkpt>
            <trkpt lon="5.22571563720703" lat="43.92173051834106">
                <ele>213.550049</ele>
                <time>2011-05-29T10:42:10.000Z</time>
                <name>Position 110</name>
            </trkpt>
            <trkpt lon="5.22560834884644" lat="43.92207384109497">
                <ele>215.472656</ele>
                <time>2011-05-29T10:43:12.000Z</time>
                <name>Position 111</name>
            </trkpt>
            <trkpt lon="5.2254581451416" lat="43.92211675643921">
                <ele>222.201782</ele>
                <time>2011-05-29T10:44:20.000Z</time>
                <name>Position 112</name>
            </trkpt>
            <trkpt lon="5.22539377212524" lat="43.92211675643921">
                <ele>223.163208</ele>
                <time>2011-05-29T10:44:43.000Z</time>
                <name>Position 113</name>
            </trkpt>
            <trkpt lon="5.22530794143677" lat="43.92222404479981">
                <ele>233.25708</ele>
                <time>2011-05-29T10:45:46.000Z</time>
                <name>Position 114</name>
            </trkpt>
            <trkpt lon="5.22535085678101" lat="43.92222404479981">
                <ele>242.389648</ele>
                <time>2011-05-29T10:45:56.000Z</time>
                <name>Position 115</name>
            </trkpt>
            <trkpt lon="5.22526502609253" lat="43.92230987548828">
                <ele>251.522095</ele>
                <time>2011-05-29T10:46:51.000Z</time>
                <name>Position 116</name>
            </trkpt>
            <trkpt lon="5.22530794143677" lat="43.922438621521">
                <ele>257.290039</ele>
                <time>2011-05-29T10:53:56.000Z</time>
                <name>Position 117</name>
            </trkpt>
            <trkpt lon="5.22532939910889" lat="43.92250299453735">
                <ele>258.251343</ele>
                <time>2011-05-29T10:54:06.000Z</time>
                <name>Position 118</name>
            </trkpt>
            <trkpt lon="5.22530794143677" lat="43.92256736755371">
                <ele>257.770752</ele>
                <time>2011-05-29T10:54:18.000Z</time>
                <name>Position 119</name>
            </trkpt>
            <trkpt lon="5.22537231445313" lat="43.92282485961914">
                <ele>254.406006</ele>
                <time>2011-05-29T10:54:46.000Z</time>
                <name>Position 120</name>
            </trkpt>
            <trkpt lon="5.22532939910889" lat="43.92295360565186">
                <ele>254.406006</ele>
                <time>2011-05-29T10:55:01.000Z</time>
                <name>Position 121</name>
            </trkpt>
            <trkpt lon="5.22541522979736" lat="43.92301797866821">
                <ele>254.406006</ele>
                <time>2011-05-29T10:55:28.000Z</time>
                <name>Position 122</name>
            </trkpt>
            <trkpt lon="5.2254581451416" lat="43.9232325553894">
                <ele>256.328735</ele>
                <time>2011-05-29T10:56:28.000Z</time>
                <name>Position 123</name>
            </trkpt>
            <trkpt lon="5.22539377212524" lat="43.92336130142212">
                <ele>257.290039</ele>
                <time>2011-05-29T10:56:47.000Z</time>
                <name>Position 124</name>
            </trkpt>
            <trkpt lon="5.22530794143677" lat="43.9234471321106">
                <ele>256.328735</ele>
                <time>2011-05-29T10:57:13.000Z</time>
                <name>Position 125</name>
            </trkpt>
            <trkpt lon="5.22520065307617" lat="43.92353296279907">
                <ele>254.406006</ele>
                <time>2011-05-29T10:57:31.000Z</time>
                <name>Position 126</name>
            </trkpt>
            <trkpt lon="5.22509336471558" lat="43.92357587814331">
                <ele>253.444702</ele>
                <time>2011-05-29T10:57:59.000Z</time>
                <name>Position 127</name>
            </trkpt>
            <trkpt lon="5.22498607635498" lat="43.92361879348755">
                <ele>252.963989</ele>
                <time>2011-05-29T10:58:12.000Z</time>
                <name>Position 128</name>
            </trkpt>
            <trkpt lon="5.22485733032227" lat="43.92368316650391">
                <ele>251.522095</ele>
                <time>2011-05-29T10:58:38.000Z</time>
                <name>Position 129</name>
            </trkpt>
            <trkpt lon="5.22440671920776" lat="43.92376899719238">
                <ele>253.444702</ele>
                <time>2011-05-29T11:00:25.000Z</time>
                <name>Position 130</name>
            </trkpt>
            <trkpt lon="5.22374153137207" lat="43.92394065856934">
                <ele>269.306519</ele>
                <time>2011-05-29T11:05:26.000Z</time>
                <name>Position 131</name>
            </trkpt>
            <trkpt lon="5.22337675094604" lat="43.92396211624146">
                <ele>268.825806</ele>
                <time>2011-05-29T11:06:36.000Z</time>
                <name>Position 132</name>
            </trkpt>
            <trkpt lon="5.22329092025757" lat="43.92398357391357">
                <ele>268.825806</ele>
                <time>2011-05-29T11:07:19.000Z</time>
                <name>Position 133</name>
            </trkpt>
            <trkpt lon="5.22320508956909" lat="43.92398357391357">
                <ele>269.787109</ele>
                <time>2011-05-29T11:07:31.000Z</time>
                <name>Position 134</name>
            </trkpt>
            <trkpt lon="5.22307634353638" lat="43.92398357391357">
                <ele>270.2677</ele>
                <time>2011-05-29T11:07:46.000Z</time>
                <name>Position 135</name>
            </trkpt>
            <trkpt lon="5.22275447845459" lat="43.92456293106079">
                <ele>274.59375</ele>
                <time>2011-05-29T11:10:54.000Z</time>
                <name>Position 136</name>
            </trkpt>
            <trkpt lon="5.22264719009399" lat="43.92462730407715">
                <ele>273.632446</ele>
                <time>2011-05-29T11:11:03.000Z</time>
                <name>Position 137</name>
            </trkpt>
            <trkpt lon="5.2225399017334" lat="43.92462730407715">
                <ele>270.2677</ele>
                <time>2011-05-29T11:11:19.000Z</time>
                <name>Position 138</name>
            </trkpt>
            <trkpt lon="5.2225399017334" lat="43.92462730407715">
                <ele>270.2677</ele>
                <time>2011-05-29T11:11:21.000Z</time>
                <name>Position 139</name>
            </trkpt>
            <trkpt lon="5.22251844406128" lat="43.92462730407715">
                <ele>273.632446</ele>
                <time>2011-05-29T11:11:43.000Z</time>
                <name>Position 140</name>
            </trkpt>
            <trkpt lon="5.22247552871704" lat="43.92467021942139">
                <ele>273.632446</ele>
                <time>2011-05-29T11:11:47.000Z</time>
                <name>Position 141</name>
            </trkpt>
            <trkpt lon="5.2224326133728" lat="43.92473459243774">
                <ele>273.632446</ele>
                <time>2011-05-29T11:12:09.000Z</time>
                <name>Position 142</name>
            </trkpt>
            <trkpt lon="5.22230386734009" lat="43.92460584640503">
                <ele>276.035645</ele>
                <time>2011-05-29T11:13:06.000Z</time>
                <name>Position 143</name>
            </trkpt>
            <trkpt lon="5.22228240966797" lat="43.92452001571655">
                <ele>274.113037</ele>
                <time>2011-05-29T11:13:48.000Z</time>
                <name>Position 144</name>
            </trkpt>
            <trkpt lon="5.22215366363525" lat="43.92436981201172">
                <ele>271.709717</ele>
                <time>2011-05-29T11:14:49.000Z</time>
                <name>Position 145</name>
            </trkpt>
            <trkpt lon="5.2220892906189" lat="43.92443418502808">
                <ele>271.709717</ele>
                <time>2011-05-29T11:15:02.000Z</time>
                <name>Position 146</name>
            </trkpt>
            <trkpt lon="5.22204637527466" lat="43.92449855804443">
                <ele>273.632446</ele>
                <time>2011-05-29T11:15:12.000Z</time>
                <name>Position 147</name>
            </trkpt>
            <trkpt lon="5.22196054458618" lat="43.92449855804443">
                <ele>275.074463</ele>
                <time>2011-05-29T11:15:31.000Z</time>
                <name>Position 148</name>
            </trkpt>
            <trkpt lon="5.2219820022583" lat="43.92456293106079">
                <ele>274.113037</ele>
                <time>2011-05-29T11:15:56.000Z</time>
                <name>Position 149</name>
            </trkpt>
            <trkpt lon="5.22196054458618" lat="43.92469167709351">
                <ele>282.284302</ele>
                <time>2011-05-29T11:17:32.000Z</time>
                <name>Position 150</name>
            </trkpt>
            <trkpt lon="5.22196054458618" lat="43.9247989654541">
                <ele>292.378174</ele>
                <time>2011-05-29T11:18:52.000Z</time>
                <name>Position 151</name>
            </trkpt>
            <trkpt lon="5.22191762924194" lat="43.92486333847046">
                <ele>294.781372</ele>
                <time>2011-05-29T11:19:06.000Z</time>
                <name>Position 152</name>
            </trkpt>
            <trkpt lon="5.22185325622559" lat="43.92507791519165">
                <ele>303.91394</ele>
                <time>2011-05-29T11:19:38.000Z</time>
                <name>Position 153</name>
            </trkpt>
            <trkpt lon="5.22183179855347" lat="43.92522811889648">
                <ele>303.91394</ele>
                <time>2011-05-29T11:20:17.000Z</time>
                <name>Position 154</name>
            </trkpt>
            <trkpt lon="5.22196054458618" lat="43.92544269561768">
                <ele>313.527222</ele>
                <time>2011-05-29T11:23:54.000Z</time>
                <name>Position 155</name>
            </trkpt>
            <trkpt lon="5.22200345993042" lat="43.9254641532898">
                <ele>314.969116</ele>
                <time>2011-05-29T11:24:03.000Z</time>
                <name>Position 156</name>
            </trkpt>
            <trkpt lon="5.22202491760254" lat="43.92548561096191">
                <ele>314.969116</ele>
                <time>2011-05-29T11:24:06.000Z</time>
                <name>Position 157</name>
            </trkpt>
            <trkpt lon="5.22202491760254" lat="43.92559289932251">
                <ele>314.488403</ele>
                <time>2011-05-29T11:24:21.000Z</time>
                <name>Position 158</name>
            </trkpt>
            <trkpt lon="5.22204637527466" lat="43.92567873001099">
                <ele>313.527222</ele>
                <time>2011-05-29T11:24:40.000Z</time>
                <name>Position 159</name>
            </trkpt>
            <trkpt lon="5.2220892906189" lat="43.92585039138794">
                <ele>312.085205</ele>
                <time>2011-05-29T11:25:11.000Z</time>
                <name>Position 160</name>
            </trkpt>
            <trkpt lon="5.22217512130737" lat="43.92595767974854">
                <ele>314.007813</ele>
                <time>2011-05-29T11:25:35.000Z</time>
                <name>Position 161</name>
            </trkpt>
            <trkpt lon="5.22226095199585" lat="43.92608642578125">
                <ele>316.411011</ele>
                <time>2011-05-29T11:26:04.000Z</time>
                <name>Position 162</name>
            </trkpt>
            <trkpt lon="5.22202491760254" lat="43.92634391784668">
                <ele>326.504883</ele>
                <time>2011-05-29T11:27:30.000Z</time>
                <name>Position 163</name>
            </trkpt>
            <trkpt lon="5.2219820022583" lat="43.9263653755188">
                <ele>326.504883</ele>
                <time>2011-05-29T11:27:41.000Z</time>
                <name>Position 164</name>
            </trkpt>
            <trkpt lon="5.22196054458618" lat="43.92640829086304">
                <ele>325.543579</ele>
                <time>2011-05-29T11:28:12.000Z</time>
                <name>Position 165</name>
            </trkpt>
            <trkpt lon="5.22189617156982" lat="43.92645120620728">
                <ele>326.985596</ele>
                <time>2011-05-29T11:28:29.000Z</time>
                <name>Position 166</name>
            </trkpt>
            <trkpt lon="5.22174596786499" lat="43.92655849456787">
                <ele>321.698364</ele>
                <time>2011-05-29T11:28:47.000Z</time>
                <name>Position 167</name>
            </trkpt>
            <trkpt lon="5.22166013717651" lat="43.92662286758423">
                <ele>322.659668</ele>
                <time>2011-05-29T11:29:04.000Z</time>
                <name>Position 168</name>
            </trkpt>
            <trkpt lon="5.22155284881592" lat="43.92668724060059">
                <ele>323.620972</ele>
                <time>2011-05-29T11:29:16.000Z</time>
                <name>Position 169</name>
            </trkpt>
            <trkpt lon="5.22146701812744" lat="43.92673015594482">
                <ele>324.582275</ele>
                <time>2011-05-29T11:29:34.000Z</time>
                <name>Position 170</name>
            </trkpt>
            <trkpt lon="5.22135972976685" lat="43.92694473266602">
                <ele>323.140381</ele>
                <time>2011-05-29T11:30:22.000Z</time>
                <name>Position 171</name>
            </trkpt>
            <trkpt lon="5.22133827209473" lat="43.92694473266602">
                <ele>323.140381</ele>
                <time>2011-05-29T11:31:04.000Z</time>
                <name>Position 172</name>
            </trkpt>
            <trkpt lon="5.22129535675049" lat="43.92698764801025">
                <ele>323.140381</ele>
                <time>2011-05-29T11:31:21.000Z</time>
                <name>Position 173</name>
            </trkpt>
            <trkpt lon="5.22129535675049" lat="43.92700910568237">
                <ele>322.659668</ele>
                <time>2011-05-29T11:31:35.000Z</time>
                <name>Position 174</name>
            </trkpt>
            <trkpt lon="5.22131681442261" lat="43.92705202102661">
                <ele>321.217773</ele>
                <time>2011-05-29T11:31:56.000Z</time>
                <name>Position 175</name>
            </trkpt>
            <trkpt lon="5.22129535675049" lat="43.92709493637085">
                <ele>319.775635</ele>
                <time>2011-05-29T11:32:12.000Z</time>
                <name>Position 176</name>
            </trkpt>
            <trkpt lon="5.22131681442261" lat="43.92713785171509">
                <ele>318.814331</ele>
                <time>2011-05-29T11:32:30.000Z</time>
                <name>Position 177</name>
            </trkpt>
            <trkpt lon="5.22131681442261" lat="43.92718076705933">
                <ele>319.295044</ele>
                <time>2011-05-29T11:32:40.000Z</time>
                <name>Position 178</name>
            </trkpt>
            <trkpt lon="5.22133827209473" lat="43.92718076705933">
                <ele>319.295044</ele>
                <time>2011-05-29T11:32:44.000Z</time>
                <name>Position 179</name>
            </trkpt>
            <trkpt lon="5.22135972976685" lat="43.92722368240356">
                <ele>320.256348</ele>
                <time>2011-05-29T11:32:53.000Z</time>
                <name>Position 180</name>
            </trkpt>
            <trkpt lon="5.22135972976685" lat="43.92722368240356">
                <ele>320.737061</ele>
                <time>2011-05-29T11:33:04.000Z</time>
                <name>Position 181</name>
            </trkpt>
            <trkpt lon="5.22131681442261" lat="43.9272665977478">
                <ele>322.659668</ele>
                <time>2011-05-29T11:33:17.000Z</time>
                <name>Position 182</name>
            </trkpt>
            <trkpt lon="5.22127389907837" lat="43.92730951309204">
                <ele>323.140381</ele>
                <time>2011-05-29T11:33:27.000Z</time>
                <name>Position 183</name>
            </trkpt>
            <trkpt lon="5.22125244140625" lat="43.92730951309204">
                <ele>323.620972</ele>
                <time>2011-05-29T11:33:52.000Z</time>
                <name>Position 184</name>
            </trkpt>
            <trkpt lon="5.22127389907837" lat="43.92733097076416">
                <ele>321.698364</ele>
                <time>2011-05-29T11:38:05.000Z</time>
                <name>Position 185</name>
            </trkpt>
            <trkpt lon="5.22138118743896" lat="43.92733097076416">
                <ele>319.775635</ele>
                <time>2011-05-29T11:43:08.000Z</time>
                <name>Position 186</name>
            </trkpt>
            <trkpt lon="5.22166013717651" lat="43.9272665977478">
                <ele>322.178955</ele>
                <time>2011-05-29T11:44:46.000Z</time>
                <name>Position 187</name>
            </trkpt>
            <trkpt lon="5.22172451019287" lat="43.92728805541992">
                <ele>322.659668</ele>
                <time>2011-05-29T11:44:55.000Z</time>
                <name>Position 188</name>
            </trkpt>
            <trkpt lon="5.22178888320923" lat="43.9272665977478">
                <ele>324.101563</ele>
                <time>2011-05-29T11:45:15.000Z</time>
                <name>Position 189</name>
            </trkpt>
            <trkpt lon="5.22178888320923" lat="43.9272665977478">
                <ele>324.101563</ele>
                <time>2011-05-29T11:45:16.000Z</time>
                <name>Position 190</name>
            </trkpt>
            <trkpt lon="5.22183179855347" lat="43.92728805541992">
                <ele>324.582275</ele>
                <time>2011-05-29T11:45:24.000Z</time>
                <name>Position 191</name>
            </trkpt>
            <trkpt lon="5.22185325622559" lat="43.92728805541992">
                <ele>324.582275</ele>
                <time>2011-05-29T11:45:45.000Z</time>
                <name>Position 192</name>
            </trkpt>
            <trkpt lon="5.22196054458618" lat="43.92733097076416">
                <ele>324.101563</ele>
                <time>2011-05-29T11:46:06.000Z</time>
                <name>Position 193</name>
            </trkpt>
            <trkpt lon="5.22202491760254" lat="43.92735242843628">
                <ele>322.659668</ele>
                <time>2011-05-29T11:46:15.000Z</time>
                <name>Position 194</name>
            </trkpt>
            <trkpt lon="5.22211074829102" lat="43.9273738861084">
                <ele>323.140381</ele>
                <time>2011-05-29T11:46:26.000Z</time>
                <name>Position 195</name>
            </trkpt>
            <trkpt lon="5.22219657897949" lat="43.92743825912476">
                <ele>323.140381</ele>
                <time>2011-05-29T11:46:56.000Z</time>
                <name>Position 196</name>
            </trkpt>
            <trkpt lon="5.22230386734009" lat="43.92756700515747">
                <ele>322.178955</ele>
                <time>2011-05-29T11:47:47.000Z</time>
                <name>Position 197</name>
            </trkpt>
            <trkpt lon="5.22234678268433" lat="43.92760992050171">
                <ele>322.178955</ele>
                <time>2011-05-29T11:47:52.000Z</time>
                <name>Position 198</name>
            </trkpt>
            <trkpt lon="5.22238969802856" lat="43.92763137817383">
                <ele>322.178955</ele>
                <time>2011-05-29T11:48:02.000Z</time>
                <name>Position 199</name>
            </trkpt>
            <trkpt lon="5.22238969802856" lat="43.92767429351807">
                <ele>322.178955</ele>
                <time>2011-05-29T11:48:18.000Z</time>
                <name>Position 200</name>
            </trkpt>
            <trkpt lon="5.22241115570068" lat="43.92773866653442">
                <ele>322.178955</ele>
                <time>2011-05-29T11:48:30.000Z</time>
                <name>Position 201</name>
            </trkpt>
            <trkpt lon="5.22245407104492" lat="43.92780303955078">
                <ele>323.140381</ele>
                <time>2011-05-29T11:48:40.000Z</time>
                <name>Position 202</name>
            </trkpt>
            <trkpt lon="5.22245407104492" lat="43.92788887023926">
                <ele>322.178955</ele>
                <time>2011-05-29T11:48:58.000Z</time>
                <name>Position 203</name>
            </trkpt>
            <trkpt lon="5.22249698638916" lat="43.92803907394409">
                <ele>318.333618</ele>
                <time>2011-05-29T11:49:19.000Z</time>
                <name>Position 204</name>
            </trkpt>
            <trkpt lon="5.22247552871704" lat="43.92812490463257">
                <ele>316.411011</ele>
                <time>2011-05-29T11:49:29.000Z</time>
                <name>Position 205</name>
            </trkpt>
            <trkpt lon="5.22249698638916" lat="43.92818927764893">
                <ele>316.411011</ele>
                <time>2011-05-29T11:49:40.000Z</time>
                <name>Position 206</name>
            </trkpt>
            <trkpt lon="5.22249698638916" lat="43.92821073532105">
                <ele>315.93042</ele>
                <time>2011-05-29T11:49:59.000Z</time>
                <name>Position 207</name>
            </trkpt>
            <trkpt lon="5.22251844406128" lat="43.92823219299316">
                <ele>314.488403</ele>
                <time>2011-05-29T11:50:13.000Z</time>
                <name>Position 208</name>
            </trkpt>
            <trkpt lon="5.22256135940552" lat="43.9282751083374">
                <ele>315.449829</ele>
                <time>2011-05-29T11:50:37.000Z</time>
                <name>Position 209</name>
            </trkpt>
            <trkpt lon="5.22264719009399" lat="43.928382396698">
                <ele>312.565796</ele>
                <time>2011-05-29T11:51:12.000Z</time>
                <name>Position 210</name>
            </trkpt>
            <trkpt lon="5.22258281707764" lat="43.92866134643555">
                <ele>298.146118</ele>
                <time>2011-05-29T11:51:54.000Z</time>
                <name>Position 211</name>
            </trkpt>
            <trkpt lon="5.22245407104492" lat="43.92870426177979">
                <ele>292.858765</ele>
                <time>2011-05-29T11:52:18.000Z</time>
                <name>Position 212</name>
            </trkpt>
            <trkpt lon="5.22232532501221" lat="43.92874717712402">
                <ele>289.974854</ele>
                <time>2011-05-29T11:52:36.000Z</time>
                <name>Position 213</name>
            </trkpt>
            <trkpt lon="5.22228240966797" lat="43.92881155014038">
                <ele>288.532959</ele>
                <time>2011-05-29T11:52:46.000Z</time>
                <name>Position 214</name>
            </trkpt>
            <trkpt lon="5.22221803665161" lat="43.92889738082886">
                <ele>290.936157</ele>
                <time>2011-05-29T11:53:02.000Z</time>
                <name>Position 215</name>
            </trkpt>
            <trkpt lon="5.22217512130737" lat="43.9289402961731">
                <ele>293.339355</ele>
                <time>2011-05-29T11:53:11.000Z</time>
                <name>Position 216</name>
            </trkpt>
            <trkpt lon="5.22204637527466" lat="43.92906904220581">
                <ele>294.300781</ele>
                <time>2011-05-29T11:53:52.000Z</time>
                <name>Position 217</name>
            </trkpt>
            <trkpt lon="5.22196054458618" lat="43.92913341522217">
                <ele>294.781372</ele>
                <time>2011-05-29T11:54:00.000Z</time>
                <name>Position 218</name>
            </trkpt>
            <trkpt lon="5.22183179855347" lat="43.92921924591065">
                <ele>300.549316</ele>
                <time>2011-05-29T11:54:15.000Z</time>
                <name>Position 219</name>
            </trkpt>
            <trkpt lon="5.22183179855347" lat="43.929283618927">
                <ele>303.433228</ele>
                <time>2011-05-29T11:54:24.000Z</time>
                <name>Position 220</name>
            </trkpt>
            <trkpt lon="5.22183179855347" lat="43.92934799194336">
                <ele>303.433228</ele>
                <time>2011-05-29T11:54:32.000Z</time>
                <name>Position 221</name>
            </trkpt>
            <trkpt lon="5.22187471389771" lat="43.92941236495972">
                <ele>301.51062</ele>
                <time>2011-05-29T11:54:46.000Z</time>
                <name>Position 222</name>
            </trkpt>
            <trkpt lon="5.22202491760254" lat="43.92958402633667">
                <ele>300.068726</ele>
                <time>2011-05-29T11:55:17.000Z</time>
                <name>Position 223</name>
            </trkpt>
            <trkpt lon="5.22204637527466" lat="43.92966985702515">
                <ele>300.068726</ele>
                <time>2011-05-29T11:55:25.000Z</time>
                <name>Position 224</name>
            </trkpt>
            <trkpt lon="5.22211074829102" lat="43.9297342300415">
                <ele>300.068726</ele>
                <time>2011-05-29T11:55:35.000Z</time>
                <name>Position 225</name>
            </trkpt>
            <trkpt lon="5.22217512130737" lat="43.92977714538574">
                <ele>301.029907</ele>
                <time>2011-05-29T11:55:43.000Z</time>
                <name>Position 226</name>
            </trkpt>
            <trkpt lon="5.22226095199585" lat="43.92986297607422">
                <ele>300.549316</ele>
                <time>2011-05-29T11:55:56.000Z</time>
                <name>Position 227</name>
            </trkpt>
            <trkpt lon="5.22226095199585" lat="43.92988443374634">
                <ele>300.549316</ele>
                <time>2011-05-29T11:55:57.000Z</time>
                <name>Position 228</name>
            </trkpt>
            <trkpt lon="5.22232532501221" lat="43.92992734909058">
                <ele>300.549316</ele>
                <time>2011-05-29T11:56:05.000Z</time>
                <name>Position 229</name>
            </trkpt>
            <trkpt lon="5.22236824035645" lat="43.92997026443481">
                <ele>301.991333</ele>
                <time>2011-05-29T11:56:10.000Z</time>
                <name>Position 230</name>
            </trkpt>
            <trkpt lon="5.22238969802856" lat="43.92997026443481">
                <ele>302.952515</ele>
                <time>2011-05-29T11:56:12.000Z</time>
                <name>Position 231</name>
            </trkpt>
            <trkpt lon="5.2224326133728" lat="43.93005609512329">
                <ele>305.355957</ele>
                <time>2011-05-29T11:56:20.000Z</time>
                <name>Position 232</name>
            </trkpt>
            <trkpt lon="5.22245407104492" lat="43.93014192581177">
                <ele>308.239868</ele>
                <time>2011-05-29T11:56:28.000Z</time>
                <name>Position 233</name>
            </trkpt>
            <trkpt lon="5.22245407104492" lat="43.93022775650024">
                <ele>310.162476</ele>
                <time>2011-05-29T11:56:38.000Z</time>
                <name>Position 234</name>
            </trkpt>
            <trkpt lon="5.22249698638916" lat="43.93033504486084">
                <ele>312.085205</ele>
                <time>2011-05-29T11:56:51.000Z</time>
                <name>Position 235</name>
            </trkpt>
            <trkpt lon="5.22249698638916" lat="43.93044233322144">
                <ele>315.449829</ele>
                <time>2011-05-29T11:57:05.000Z</time>
                <name>Position 236</name>
            </trkpt>
            <trkpt lon="5.22251844406128" lat="43.93048524856567">
                <ele>316.891724</ele>
                <time>2011-05-29T11:57:12.000Z</time>
                <name>Position 237</name>
            </trkpt>
            <trkpt lon="5.22251844406128" lat="43.93050670623779">
                <ele>316.891724</ele>
                <time>2011-05-29T11:57:14.000Z</time>
                <name>Position 238</name>
            </trkpt>
            <trkpt lon="5.22256135940552" lat="43.93061399459839">
                <ele>315.93042</ele>
                <time>2011-05-29T11:57:30.000Z</time>
                <name>Position 239</name>
            </trkpt>
            <trkpt lon="5.22258281707764" lat="43.93082857131958">
                <ele>316.411011</ele>
                <time>2011-05-29T11:58:08.000Z</time>
                <name>Position 240</name>
            </trkpt>
            <trkpt lon="5.22251844406128" lat="43.93093585968018">
                <ele>318.814331</ele>
                <time>2011-05-29T11:58:18.000Z</time>
                <name>Position 241</name>
            </trkpt>
            <trkpt lon="5.2224326133728" lat="43.93108606338501">
                <ele>320.256348</ele>
                <time>2011-05-29T11:58:35.000Z</time>
                <name>Position 242</name>
            </trkpt>
            <trkpt lon="5.22228240966797" lat="43.93106460571289">
                <ele>322.178955</ele>
                <time>2011-05-29T11:58:49.000Z</time>
                <name>Position 243</name>
            </trkpt>
            <trkpt lon="5.22223949432373" lat="43.93106460571289">
                <ele>322.178955</ele>
                <time>2011-05-29T11:58:52.000Z</time>
                <name>Position 244</name>
            </trkpt>
            <trkpt lon="5.22217512130737" lat="43.93106460571289">
                <ele>321.217773</ele>
                <time>2011-05-29T11:59:02.000Z</time>
                <name>Position 245</name>
            </trkpt>
            <trkpt lon="5.2220892906189" lat="43.93106460571289">
                <ele>320.256348</ele>
                <time>2011-05-29T11:59:12.000Z</time>
                <name>Position 246</name>
            </trkpt>
            <trkpt lon="5.22202491760254" lat="43.93106460571289">
                <ele>319.775635</ele>
                <time>2011-05-29T11:59:26.000Z</time>
                <name>Position 247</name>
            </trkpt>
            <trkpt lon="5.22191762924194" lat="43.93115043640137">
                <ele>320.256348</ele>
                <time>2011-05-29T11:59:37.000Z</time>
                <name>Position 248</name>
            </trkpt>
            <trkpt lon="5.22183179855347" lat="43.93119335174561">
                <ele>320.256348</ele>
                <time>2011-05-29T11:59:45.000Z</time>
                <name>Position 249</name>
            </trkpt>
            <trkpt lon="5.22174596786499" lat="43.93123626708984">
                <ele>319.295044</ele>
                <time>2011-05-29T11:59:54.000Z</time>
                <name>Position 250</name>
            </trkpt>
            <trkpt lon="5.22159576416016" lat="43.93121480941773">
                <ele>317.372437</ele>
                <time>2011-05-29T12:00:08.000Z</time>
                <name>Position 251</name>
            </trkpt>
            <trkpt lon="5.22150993347168" lat="43.93119335174561">
                <ele>316.891724</ele>
                <time>2011-05-29T12:00:18.000Z</time>
                <name>Position 252</name>
            </trkpt>
            <trkpt lon="5.22150993347168" lat="43.93119335174561">
                <ele>316.891724</ele>
                <time>2011-05-29T12:00:19.000Z</time>
                <name>Position 253</name>
            </trkpt>
            <trkpt lon="5.22138118743896" lat="43.93119335174561">
                <ele>316.411011</ele>
                <time>2011-05-29T12:00:32.000Z</time>
                <name>Position 254</name>
            </trkpt>
            <trkpt lon="5.22131681442261" lat="43.93119335174561">
                <ele>315.93042</ele>
                <time>2011-05-29T12:00:39.000Z</time>
                <name>Position 255</name>
            </trkpt>
            <trkpt lon="5.22118806838989" lat="43.93119335174561">
                <ele>316.411011</ele>
                <time>2011-05-29T12:00:53.000Z</time>
                <name>Position 256</name>
            </trkpt>
            <trkpt lon="5.22112369537354" lat="43.93117189407349">
                <ele>315.449829</ele>
                <time>2011-05-29T12:01:04.000Z</time>
                <name>Position 257</name>
            </trkpt>
            <trkpt lon="5.2210807800293" lat="43.93115043640137">
                <ele>315.449829</ele>
                <time>2011-05-29T12:01:09.000Z</time>
                <name>Position 258</name>
            </trkpt>
            <trkpt lon="5.22095203399658" lat="43.93117189407349">
                <ele>315.93042</ele>
                <time>2011-05-29T12:01:27.000Z</time>
                <name>Position 259</name>
            </trkpt>
            <trkpt lon="5.22088766098022" lat="43.93115043640137">
                <ele>315.93042</ele>
                <time>2011-05-29T12:01:31.000Z</time>
                <name>Position 260</name>
            </trkpt>
            <trkpt lon="5.22080183029175" lat="43.93112897872925">
                <ele>315.449829</ele>
                <time>2011-05-29T12:01:39.000Z</time>
                <name>Position 261</name>
            </trkpt>
            <trkpt lon="5.22069454193115" lat="43.93106460571289">
                <ele>313.046509</ele>
                <time>2011-05-29T12:01:53.000Z</time>
                <name>Position 262</name>
            </trkpt>
            <trkpt lon="5.22058725357056" lat="43.93102169036865">
                <ele>310.643066</ele>
                <time>2011-05-29T12:02:04.000Z</time>
                <name>Position 263</name>
            </trkpt>
            <trkpt lon="5.2205228805542" lat="43.93100023269653">
                <ele>311.604492</ele>
                <time>2011-05-29T12:02:09.000Z</time>
                <name>Position 264</name>
            </trkpt>
            <trkpt lon="5.22047996520996" lat="43.93104314804077">
                <ele>313.046509</ele>
                <time>2011-05-29T12:02:16.000Z</time>
                <name>Position 265</name>
            </trkpt>
            <trkpt lon="5.22045850753784" lat="43.93127918243408">
                <ele>316.411011</ele>
                <time>2011-05-29T12:02:31.000Z</time>
                <name>Position 266</name>
            </trkpt>
            <trkpt lon="5.22050142288208" lat="43.93136501312256">
                <ele>318.814331</ele>
                <time>2011-05-29T12:02:48.000Z</time>
                <name>Position 267</name>
            </trkpt>
            <trkpt lon="5.22054433822632" lat="43.93145084381104">
                <ele>319.775635</ele>
                <time>2011-05-29T12:02:57.000Z</time>
                <name>Position 268</name>
            </trkpt>
            <trkpt lon="5.22058725357056" lat="43.93151521682739">
                <ele>319.295044</ele>
                <time>2011-05-29T12:03:07.000Z</time>
                <name>Position 269</name>
            </trkpt>
            <trkpt lon="5.22067308425903" lat="43.93160104751587">
                <ele>319.775635</ele>
                <time>2011-05-29T12:03:19.000Z</time>
                <name>Position 270</name>
            </trkpt>
            <trkpt lon="5.22080183029175" lat="43.93166542053223">
                <ele>329.869507</ele>
                <time>2011-05-29T12:04:46.000Z</time>
                <name>Position 271</name>
            </trkpt>
            <trkpt lon="5.22078037261963" lat="43.93170833587647">
                <ele>334.195435</ele>
                <time>2011-05-29T12:15:13.000Z</time>
                <name>Position 272</name>
            </trkpt>
            <trkpt lon="5.22075891494751" lat="43.93170833587647">
                <ele>335.156738</ele>
                <time>2011-05-29T12:15:57.000Z</time>
                <name>Position 273</name>
            </trkpt>
            <trkpt lon="5.22086620330811" lat="43.9317512512207">
                <ele>339.963379</ele>
                <time>2011-05-29T12:18:59.000Z</time>
                <name>Position 274</name>
            </trkpt>
            <trkpt lon="5.22099494934082" lat="43.93181562423706">
                <ele>340.444092</ele>
                <time>2011-05-29T12:19:17.000Z</time>
                <name>Position 275</name>
            </trkpt>
            <trkpt lon="5.22114515304565" lat="43.93190145492554">
                <ele>340.444092</ele>
                <time>2011-05-29T12:19:37.000Z</time>
                <name>Position 276</name>
            </trkpt>
            <trkpt lon="5.22138118743896" lat="43.93209457397461">
                <ele>340.444092</ele>
                <time>2011-05-29T12:21:12.000Z</time>
                <name>Position 277</name>
            </trkpt>
            <trkpt lon="5.22127389907837" lat="43.93224477767944">
                <ele>333.234131</ele>
                <time>2011-05-29T12:21:30.000Z</time>
                <name>Position 278</name>
            </trkpt>
            <trkpt lon="5.2210807800293" lat="43.93267393112183">
                <ele>317.372437</ele>
                <time>2011-05-29T12:22:11.000Z</time>
                <name>Position 279</name>
            </trkpt>
            <trkpt lon="5.22120952606201" lat="43.93329620361328">
                <ele>323.140381</ele>
                <time>2011-05-29T12:23:55.000Z</time>
                <name>Position 280</name>
            </trkpt>
            <trkpt lon="5.22129535675049" lat="43.93361806869507">
                <ele>338.040771</ele>
                <time>2011-05-29T12:26:14.000Z</time>
                <name>Position 281</name>
            </trkpt>
            <trkpt lon="5.22127389907837" lat="43.93366098403931">
                <ele>339.002075</ele>
                <time>2011-05-29T12:26:16.000Z</time>
                <name>Position 282</name>
            </trkpt>
            <trkpt lon="5.22127389907837" lat="43.93368244171143">
                <ele>340.444092</ele>
                <time>2011-05-29T12:26:31.000Z</time>
                <name>Position 283</name>
            </trkpt>
            <trkpt lon="5.22120952606201" lat="43.93378973007202">
                <ele>352.941162</ele>
                <time>2011-05-29T12:26:58.000Z</time>
                <name>Position 284</name>
            </trkpt>
            <trkpt lon="5.22110223770142" lat="43.93378973007202">
                <ele>363.515747</ele>
                <time>2011-05-29T12:27:10.000Z</time>
                <name>Position 285</name>
            </trkpt>
            <trkpt lon="5.22101640701294" lat="43.93378973007202">
                <ele>370.725586</ele>
                <time>2011-05-29T12:27:22.000Z</time>
                <name>Position 286</name>
            </trkpt>
            <trkpt lon="5.22099494934082" lat="43.93383264541626">
                <ele>376.012817</ele>
                <time>2011-05-29T12:27:33.000Z</time>
                <name>Position 287</name>
            </trkpt>
            <trkpt lon="5.22099494934082" lat="43.93385410308838">
                <ele>384.184082</ele>
                <time>2011-05-29T12:31:31.000Z</time>
                <name>Position 288</name>
            </trkpt>
            <trkpt lon="5.2210807800293" lat="43.93389701843262">
                <ele>383.222656</ele>
                <time>2011-05-29T12:31:42.000Z</time>
                <name>Position 289</name>
            </trkpt>
            <trkpt lon="5.22112369537354" lat="43.93391847610474">
                <ele>382.261353</ele>
                <time>2011-05-29T12:31:46.000Z</time>
                <name>Position 290</name>
            </trkpt>
            <trkpt lon="5.22116661071777" lat="43.93396139144898">
                <ele>382.261353</ele>
                <time>2011-05-29T12:31:53.000Z</time>
                <name>Position 291</name>
            </trkpt>
            <trkpt lon="5.22116661071777" lat="43.93398284912109">
                <ele>381.78064</ele>
                <time>2011-05-29T12:32:03.000Z</time>
                <name>Position 292</name>
            </trkpt>
            <trkpt lon="5.22144556045532" lat="43.93396139144898">
                <ele>376.974243</ele>
                <time>2011-05-29T12:35:06.000Z</time>
                <name>Position 293</name>
            </trkpt>
            <trkpt lon="5.22150993347168" lat="43.93411159515381">
                <ele>373.128906</ele>
                <time>2011-05-29T12:35:18.000Z</time>
                <name>Position 294</name>
            </trkpt>
            <trkpt lon="5.22138118743896" lat="43.9342188835144">
                <ele>371.206299</ele>
                <time>2011-05-29T12:35:23.000Z</time>
                <name>Position 295</name>
            </trkpt>
            <trkpt lon="5.22131681442261" lat="43.93434762954712">
                <ele>366.880249</ele>
                <time>2011-05-29T12:35:35.000Z</time>
                <name>Position 296</name>
            </trkpt>
            <trkpt lon="5.22125244140625" lat="43.93445491790772">
                <ele>361.59314</ele>
                <time>2011-05-29T12:35:50.000Z</time>
                <name>Position 297</name>
            </trkpt>
            <trkpt lon="5.22120952606201" lat="43.93451929092407">
                <ele>359.189697</ele>
                <time>2011-05-29T12:36:00.000Z</time>
                <name>Position 298</name>
            </trkpt>
            <trkpt lon="5.22118806838989" lat="43.93456220626831">
                <ele>358.228394</ele>
                <time>2011-05-29T12:36:07.000Z</time>
                <name>Position 299</name>
            </trkpt>
            <trkpt lon="5.22116661071777" lat="43.93456220626831">
                <ele>357.747803</ele>
                <time>2011-05-29T12:36:10.000Z</time>
                <name>Position 300</name>
            </trkpt>
            <trkpt lon="5.22116661071777" lat="43.93466949462891">
                <ele>358.228394</ele>
                <time>2011-05-29T12:36:18.000Z</time>
                <name>Position 301</name>
            </trkpt>
            <trkpt lon="5.22116661071777" lat="43.93471240997315">
                <ele>358.708984</ele>
                <time>2011-05-29T12:36:22.000Z</time>
                <name>Position 302</name>
            </trkpt>
            <trkpt lon="5.22116661071777" lat="43.93475532531738">
                <ele>358.228394</ele>
                <time>2011-05-29T12:36:28.000Z</time>
                <name>Position 303</name>
            </trkpt>
            <trkpt lon="5.22118806838989" lat="43.9348840713501">
                <ele>357.747803</ele>
                <time>2011-05-29T12:36:38.000Z</time>
                <name>Position 304</name>
            </trkpt>
            <trkpt lon="5.22116661071777" lat="43.93499135971069">
                <ele>355.825195</ele>
                <time>2011-05-29T12:36:51.000Z</time>
                <name>Position 305</name>
            </trkpt>
            <trkpt lon="5.22114515304565" lat="43.93509864807129">
                <ele>354.86377</ele>
                <time>2011-05-29T12:37:01.000Z</time>
                <name>Position 306</name>
            </trkpt>
            <trkpt lon="5.22116661071777" lat="43.93514156341553">
                <ele>354.86377</ele>
                <time>2011-05-29T12:37:11.000Z</time>
                <name>Position 307</name>
            </trkpt>
            <trkpt lon="5.22114515304565" lat="43.93520593643189">
                <ele>354.86377</ele>
                <time>2011-05-29T12:37:19.000Z</time>
                <name>Position 308</name>
            </trkpt>
            <trkpt lon="5.22112369537354" lat="43.93531322479248">
                <ele>355.825195</ele>
                <time>2011-05-29T12:37:30.000Z</time>
                <name>Position 309</name>
            </trkpt>
            <trkpt lon="5.22105932235718" lat="43.93542051315308">
                <ele>359.189697</ele>
                <time>2011-05-29T12:37:48.000Z</time>
                <name>Position 310</name>
            </trkpt>
            <trkpt lon="5.22099494934082" lat="43.93550634384155">
                <ele>360.631714</ele>
                <time>2011-05-29T12:38:04.000Z</time>
                <name>Position 311</name>
            </trkpt>
            <trkpt lon="5.2209734916687" lat="43.93554925918579">
                <ele>361.112427</ele>
                <time>2011-05-29T12:38:07.000Z</time>
                <name>Position 312</name>
            </trkpt>
            <trkpt lon="5.22093057632446" lat="43.93561363220215">
                <ele>361.59314</ele>
                <time>2011-05-29T12:38:15.000Z</time>
                <name>Position 313</name>
            </trkpt>
            <trkpt lon="5.22088766098022" lat="43.9357852935791">
                <ele>359.189697</ele>
                <time>2011-05-29T12:38:51.000Z</time>
                <name>Position 314</name>
            </trkpt>
            <trkpt lon="5.22086620330811" lat="43.9358925819397">
                <ele>357.747803</ele>
                <time>2011-05-29T12:39:02.000Z</time>
                <name>Position 315</name>
            </trkpt>
            <trkpt lon="5.22086620330811" lat="43.93597841262817">
                <ele>357.26709</ele>
                <time>2011-05-29T12:39:10.000Z</time>
                <name>Position 316</name>
            </trkpt>
            <trkpt lon="5.22086620330811" lat="43.93608570098877">
                <ele>356.305786</ele>
                <time>2011-05-29T12:39:22.000Z</time>
                <name>Position 317</name>
            </trkpt>
            <trkpt lon="5.22088766098022" lat="43.93617153167725">
                <ele>355.825195</ele>
                <time>2011-05-29T12:39:31.000Z</time>
                <name>Position 318</name>
            </trkpt>
            <trkpt lon="5.22090911865234" lat="43.93619298934937">
                <ele>355.344482</ele>
                <time>2011-05-29T12:39:33.000Z</time>
                <name>Position 319</name>
            </trkpt>
            <trkpt lon="5.22093057632446" lat="43.93632173538208">
                <ele>353.421875</ele>
                <time>2011-05-29T12:39:47.000Z</time>
                <name>Position 320</name>
            </trkpt>
            <trkpt lon="5.2209734916687" lat="43.93640756607056">
                <ele>351.018433</ele>
                <time>2011-05-29T12:39:57.000Z</time>
                <name>Position 321</name>
            </trkpt>
            <trkpt lon="5.22114515304565" lat="43.93668651580811">
                <ele>339.002075</ele>
                <time>2011-05-29T12:40:37.000Z</time>
                <name>Position 322</name>
            </trkpt>
            <trkpt lon="5.22116661071777" lat="43.9367938041687">
                <ele>344.289429</ele>
                <time>2011-05-29T12:40:53.000Z</time>
                <name>Position 323</name>
            </trkpt>
            <trkpt lon="5.22118806838989" lat="43.93685817718506">
                <ele>347.173218</ele>
                <time>2011-05-29T12:41:02.000Z</time>
                <name>Position 324</name>
            </trkpt>
            <trkpt lon="5.22125244140625" lat="43.93687963485718">
                <ele>351.979858</ele>
                <time>2011-05-29T12:41:11.000Z</time>
                <name>Position 325</name>
            </trkpt>
            <trkpt lon="5.22129535675049" lat="43.93694400787354">
                <ele>351.979858</ele>
                <time>2011-05-29T12:41:23.000Z</time>
                <name>Position 326</name>
            </trkpt>
            <trkpt lon="5.22129535675049" lat="43.93700838088989">
                <ele>351.018433</ele>
                <time>2011-05-29T12:41:32.000Z</time>
                <name>Position 327</name>
            </trkpt>
            <trkpt lon="5.22129535675049" lat="43.93702983856201">
                <ele>383.222656</ele>
                <time>2011-05-29T13:03:36.000Z</time>
                <name>Position 328</name>
            </trkpt>
            <trkpt lon="5.22131681442261" lat="43.93711566925049">
                <ele>384.184082</ele>
                <time>2011-05-29T13:06:34.000Z</time>
                <name>Position 329</name>
            </trkpt>
            <trkpt lon="5.22135972976685" lat="43.93718004226685">
                <ele>382.261353</ele>
                <time>2011-05-29T13:06:42.000Z</time>
                <name>Position 330</name>
            </trkpt>
            <trkpt lon="5.22135972976685" lat="43.93728733062744">
                <ele>380.819458</ele>
                <time>2011-05-29T13:06:53.000Z</time>
                <name>Position 331</name>
            </trkpt>
            <trkpt lon="5.22135972976685" lat="43.93730878829956">
                <ele>381.300049</ele>
                <time>2011-05-29T13:06:55.000Z</time>
                <name>Position 332</name>
            </trkpt>
            <trkpt lon="5.22133827209473" lat="43.93739461898804">
                <ele>380.338745</ele>
                <time>2011-05-29T13:07:05.000Z</time>
                <name>Position 333</name>
            </trkpt>
            <trkpt lon="5.22123098373413" lat="43.93752336502075">
                <ele>371.68689</ele>
                <time>2011-05-29T13:07:29.000Z</time>
                <name>Position 334</name>
            </trkpt>
            <trkpt lon="5.22118806838989" lat="43.93756628036499">
                <ele>370.244873</ele>
                <time>2011-05-29T13:07:31.000Z</time>
                <name>Position 335</name>
            </trkpt>
            <trkpt lon="5.22116661071777" lat="43.93760919570923">
                <ele>369.283691</ele>
                <time>2011-05-29T13:07:34.000Z</time>
                <name>Position 336</name>
            </trkpt>
            <trkpt lon="5.22110223770142" lat="43.93771648406982">
                <ele>368.802979</ele>
                <time>2011-05-29T13:07:44.000Z</time>
                <name>Position 337</name>
            </trkpt>
            <trkpt lon="5.22110223770142" lat="43.9378023147583">
                <ele>366.399536</ele>
                <time>2011-05-29T13:07:54.000Z</time>
                <name>Position 338</name>
            </trkpt>
            <trkpt lon="5.22114515304565" lat="43.93786668777466">
                <ele>366.880249</ele>
                <time>2011-05-29T13:08:00.000Z</time>
                <name>Position 339</name>
            </trkpt>
            <trkpt lon="5.22114515304565" lat="43.93793106079102">
                <ele>368.322266</ele>
                <time>2011-05-29T13:08:07.000Z</time>
                <name>Position 340</name>
            </trkpt>
            <trkpt lon="5.22118806838989" lat="43.93801689147949">
                <ele>369.283691</ele>
                <time>2011-05-29T13:08:19.000Z</time>
                <name>Position 341</name>
            </trkpt>
            <trkpt lon="5.22123098373413" lat="43.93812417984009">
                <ele>373.609497</ele>
                <time>2011-05-29T13:08:30.000Z</time>
                <name>Position 342</name>
            </trkpt>
            <trkpt lon="5.22129535675049" lat="43.93821001052856">
                <ele>372.16748</ele>
                <time>2011-05-29T13:08:46.000Z</time>
                <name>Position 343</name>
            </trkpt>
            <trkpt lon="5.22138118743896" lat="43.93827438354492">
                <ele>371.206299</ele>
                <time>2011-05-29T13:08:57.000Z</time>
                <name>Position 344</name>
            </trkpt>
            <trkpt lon="5.22138118743896" lat="43.93827438354492">
                <ele>371.206299</ele>
                <time>2011-05-29T13:08:59.000Z</time>
                <name>Position 345</name>
            </trkpt>
            <trkpt lon="5.22140264511108" lat="43.93833875656128">
                <ele>372.648193</ele>
                <time>2011-05-29T13:09:08.000Z</time>
                <name>Position 346</name>
            </trkpt>
            <trkpt lon="5.2214241027832" lat="43.93833875656128">
                <ele>374.090088</ele>
                <time>2011-05-29T13:09:37.000Z</time>
                <name>Position 347</name>
            </trkpt>
            <trkpt lon="5.2214241027832" lat="43.9383602142334">
                <ele>381.78064</ele>
                <time>2011-05-29T13:09:51.000Z</time>
                <name>Position 348</name>
            </trkpt>
            <trkpt lon="5.22146701812744" lat="43.93833875656128">
                <ele>383.222656</ele>
                <time>2011-05-29T13:10:08.000Z</time>
                <name>Position 349</name>
            </trkpt>
            <trkpt lon="5.2215313911438" lat="43.93833875656128">
                <ele>383.222656</ele>
                <time>2011-05-29T13:10:26.000Z</time>
                <name>Position 350</name>
            </trkpt>
            <trkpt lon="5.22159576416016" lat="43.93833875656128">
                <ele>384.664795</ele>
                <time>2011-05-29T13:10:54.000Z</time>
                <name>Position 351</name>
            </trkpt>
            <trkpt lon="5.22168159484863" lat="43.9383602142334">
                <ele>387.067993</ele>
                <time>2011-05-29T13:11:02.000Z</time>
                <name>Position 352</name>
            </trkpt>
            <trkpt lon="5.22170305252075" lat="43.9383602142334">
                <ele>389.951904</ele>
                <time>2011-05-29T13:11:13.000Z</time>
                <name>Position 353</name>
            </trkpt>
            <trkpt lon="5.22176742553711" lat="43.9383602142334">
                <ele>393.797241</ele>
                <time>2011-05-29T13:11:35.000Z</time>
                <name>Position 354</name>
            </trkpt>
            <trkpt lon="5.22183179855347" lat="43.93838167190552">
                <ele>394.758545</ele>
                <time>2011-05-29T13:11:49.000Z</time>
                <name>Position 355</name>
            </trkpt>
            <trkpt lon="5.22185325622559" lat="43.93840312957764">
                <ele>394.758545</ele>
                <time>2011-05-29T13:11:52.000Z</time>
                <name>Position 356</name>
            </trkpt>
            <trkpt lon="5.22189617156982" lat="43.93846750259399">
                <ele>395.239136</ele>
                <time>2011-05-29T13:12:03.000Z</time>
                <name>Position 357</name>
            </trkpt>
            <trkpt lon="5.22196054458618" lat="43.93851041793823">
                <ele>397.642456</ele>
                <time>2011-05-29T13:12:12.000Z</time>
                <name>Position 358</name>
            </trkpt>
            <trkpt lon="5.22196054458618" lat="43.93853187561035">
                <ele>398.123169</ele>
                <time>2011-05-29T13:12:13.000Z</time>
                <name>Position 359</name>
            </trkpt>
            <trkpt lon="5.22204637527466" lat="43.93861770629883">
                <ele>401.968506</ele>
                <time>2011-05-29T13:12:24.000Z</time>
                <name>Position 360</name>
            </trkpt>
            <trkpt lon="5.2220892906189" lat="43.93866062164307">
                <ele>403.891113</ele>
                <time>2011-05-29T13:12:32.000Z</time>
                <name>Position 361</name>
            </trkpt>
            <trkpt lon="5.22213220596313" lat="43.93872499465942">
                <ele>405.333008</ele>
                <time>2011-05-29T13:12:43.000Z</time>
                <name>Position 362</name>
            </trkpt>
            <trkpt lon="5.22215366363525" lat="43.93874645233154">
                <ele>405.333008</ele>
                <time>2011-05-29T13:12:49.000Z</time>
                <name>Position 363</name>
            </trkpt>
            <trkpt lon="5.22217512130737" lat="43.93876791000366">
                <ele>405.813721</ele>
                <time>2011-05-29T13:12:52.000Z</time>
                <name>Position 364</name>
            </trkpt>
            <trkpt lon="5.22217512130737" lat="43.93883228302002">
                <ele>407.255615</ele>
                <time>2011-05-29T13:13:04.000Z</time>
                <name>Position 365</name>
            </trkpt>
            <trkpt lon="5.22204637527466" lat="43.93902540206909">
                <ele>408.217041</ele>
                <time>2011-05-29T13:13:47.000Z</time>
                <name>Position 366</name>
            </trkpt>
            <trkpt lon="5.2219820022583" lat="43.93915414810181">
                <ele>408.217041</ele>
                <time>2011-05-29T13:14:09.000Z</time>
                <name>Position 367</name>
            </trkpt>
            <trkpt lon="5.22189617156982" lat="43.93921852111816">
                <ele>408.217041</ele>
                <time>2011-05-29T13:14:20.000Z</time>
                <name>Position 368</name>
            </trkpt>
            <trkpt lon="5.22187471389771" lat="43.93932580947876">
                <ele>407.736328</ele>
                <time>2011-05-29T13:14:30.000Z</time>
                <name>Position 369</name>
            </trkpt>
            <trkpt lon="5.22189617156982" lat="43.93941164016724">
                <ele>406.294312</ele>
                <time>2011-05-29T13:14:40.000Z</time>
                <name>Position 370</name>
            </trkpt>
            <trkpt lon="5.22196054458618" lat="43.93947601318359">
                <ele>406.294312</ele>
                <time>2011-05-29T13:14:50.000Z</time>
                <name>Position 371</name>
            </trkpt>
            <trkpt lon="5.22196054458618" lat="43.93949747085571">
                <ele>406.294312</ele>
                <time>2011-05-29T13:14:54.000Z</time>
                <name>Position 372</name>
            </trkpt>
            <trkpt lon="5.22196054458618" lat="43.93962621688843">
                <ele>406.294312</ele>
                <time>2011-05-29T13:15:05.000Z</time>
                <name>Position 373</name>
            </trkpt>
            <trkpt lon="5.22196054458618" lat="43.93969058990479">
                <ele>405.813721</ele>
                <time>2011-05-29T13:15:10.000Z</time>
                <name>Position 374</name>
            </trkpt>
            <trkpt lon="5.22191762924194" lat="43.93979787826538">
                <ele>404.852295</ele>
                <time>2011-05-29T13:15:24.000Z</time>
                <name>Position 375</name>
            </trkpt>
            <trkpt lon="5.22191762924194" lat="43.93986225128174">
                <ele>404.371704</ele>
                <time>2011-05-29T13:15:30.000Z</time>
                <name>Position 376</name>
            </trkpt>
            <trkpt lon="5.22196054458618" lat="43.93988370895386">
                <ele>402.929688</ele>
                <time>2011-05-29T13:15:41.000Z</time>
                <name>Position 377</name>
            </trkpt>
            <trkpt lon="5.2219820022583" lat="43.93990516662598">
                <ele>397.161743</ele>
                <time>2011-05-29T13:18:35.000Z</time>
                <name>Position 378</name>
            </trkpt>
            <trkpt lon="5.22200345993042" lat="43.9399266242981">
                <ele>397.161743</ele>
                <time>2011-05-29T13:19:00.000Z</time>
                <name>Position 379</name>
            </trkpt>
            <trkpt lon="5.2219820022583" lat="43.93999099731445">
                <ele>395.719849</ele>
                <time>2011-05-29T13:19:21.000Z</time>
                <name>Position 380</name>
            </trkpt>
            <trkpt lon="5.22196054458618" lat="43.94003391265869">
                <ele>393.797241</ele>
                <time>2011-05-29T13:20:02.000Z</time>
                <name>Position 381</name>
            </trkpt>
            <trkpt lon="5.22196054458618" lat="43.94007682800293">
                <ele>394.758545</ele>
                <time>2011-05-29T13:20:22.000Z</time>
                <name>Position 382</name>
            </trkpt>
            <trkpt lon="5.22196054458618" lat="43.94014120101929">
                <ele>394.758545</ele>
                <time>2011-05-29T13:20:56.000Z</time>
                <name>Position 383</name>
            </trkpt>
            <trkpt lon="5.22202491760254" lat="43.94018411636353">
                <ele>393.797241</ele>
                <time>2011-05-29T13:21:11.000Z</time>
                <name>Position 384</name>
            </trkpt>
            <trkpt lon="5.22206783294678" lat="43.94022703170776">
                <ele>393.316528</ele>
                <time>2011-05-29T13:21:23.000Z</time>
                <name>Position 385</name>
            </trkpt>
            <trkpt lon="5.2220892906189" lat="43.94022703170776">
                <ele>394.277954</ele>
                <time>2011-05-29T13:21:25.000Z</time>
                <name>Position 386</name>
            </trkpt>
            <trkpt lon="5.22223949432373" lat="43.94024848937988">
                <ele>398.60376</ele>
                <time>2011-05-29T13:21:36.000Z</time>
                <name>Position 387</name>
            </trkpt>
            <trkpt lon="5.22236824035645" lat="43.94022703170776">
                <ele>398.60376</ele>
                <time>2011-05-29T13:21:47.000Z</time>
                <name>Position 388</name>
            </trkpt>
            <trkpt lon="5.22247552871704" lat="43.94022703170776">
                <ele>395.239136</ele>
                <time>2011-05-29T13:21:57.000Z</time>
                <name>Position 389</name>
            </trkpt>
            <trkpt lon="5.22271156311035" lat="43.94024848937988">
                <ele>388.51001</ele>
                <time>2011-05-29T13:22:14.000Z</time>
                <name>Position 390</name>
            </trkpt>
            <trkpt lon="5.22292613983154" lat="43.94029140472412">
                <ele>387.548584</ele>
                <time>2011-05-29T13:22:25.000Z</time>
                <name>Position 391</name>
            </trkpt>
            <trkpt lon="5.2229905128479" lat="43.94033432006836">
                <ele>387.067993</ele>
                <time>2011-05-29T13:22:30.000Z</time>
                <name>Position 392</name>
            </trkpt>
            <trkpt lon="5.22305488586426" lat="43.94035577774048">
                <ele>386.587402</ele>
                <time>2011-05-29T13:22:34.000Z</time>
                <name>Position 393</name>
            </trkpt>
            <trkpt lon="5.22311925888062" lat="43.94044160842896">
                <ele>386.587402</ele>
                <time>2011-05-29T13:22:44.000Z</time>
                <name>Position 394</name>
            </trkpt>
            <trkpt lon="5.22318363189697" lat="43.94054889678955">
                <ele>385.145386</ele>
                <time>2011-05-29T13:22:54.000Z</time>
                <name>Position 395</name>
            </trkpt>
            <trkpt lon="5.22322654724121" lat="43.94065618515015">
                <ele>383.222656</ele>
                <time>2011-05-29T13:23:05.000Z</time>
                <name>Position 396</name>
            </trkpt>
            <trkpt lon="5.22320508956909" lat="43.94078493118286">
                <ele>381.78064</ele>
                <time>2011-05-29T13:23:19.000Z</time>
                <name>Position 397</name>
            </trkpt>
            <trkpt lon="5.22316217422485" lat="43.94097805023193">
                <ele>382.261353</ele>
                <time>2011-05-29T13:23:33.000Z</time>
                <name>Position 398</name>
            </trkpt>
            <trkpt lon="5.2230978012085" lat="43.94106388092041">
                <ele>382.742065</ele>
                <time>2011-05-29T13:23:41.000Z</time>
                <name>Position 399</name>
            </trkpt>
            <trkpt lon="5.22303342819214" lat="43.94112825393677">
                <ele>383.703247</ele>
                <time>2011-05-29T13:23:46.000Z</time>
                <name>Position 400</name>
            </trkpt>
            <trkpt lon="5.22292613983154" lat="43.94123554229736">
                <ele>382.742065</ele>
                <time>2011-05-29T13:23:59.000Z</time>
                <name>Position 401</name>
            </trkpt>
            <trkpt lon="5.22286176681519" lat="43.94134283065796">
                <ele>381.300049</ele>
                <time>2011-05-29T13:24:08.000Z</time>
                <name>Position 402</name>
            </trkpt>
            <trkpt lon="5.22277593612671" lat="43.94140720367432">
                <ele>381.300049</ele>
                <time>2011-05-29T13:24:18.000Z</time>
                <name>Position 403</name>
            </trkpt>
            <trkpt lon="5.22266864776611" lat="43.94147157669067">
                <ele>380.338745</ele>
                <time>2011-05-29T13:24:27.000Z</time>
                <name>Position 404</name>
            </trkpt>
            <trkpt lon="5.22256135940552" lat="43.94151449203491">
                <ele>380.819458</ele>
                <time>2011-05-29T13:24:37.000Z</time>
                <name>Position 405</name>
            </trkpt>
            <trkpt lon="5.22251844406128" lat="43.94157886505127">
                <ele>380.338745</ele>
                <time>2011-05-29T13:24:43.000Z</time>
                <name>Position 406</name>
            </trkpt>
            <trkpt lon="5.22245407104492" lat="43.94170761108398">
                <ele>380.338745</ele>
                <time>2011-05-29T13:24:52.000Z</time>
                <name>Position 407</name>
            </trkpt>
            <trkpt lon="5.22236824035645" lat="43.94179344177246">
                <ele>382.261353</ele>
                <time>2011-05-29T13:25:01.000Z</time>
                <name>Position 408</name>
            </trkpt>
            <trkpt lon="5.22234678268433" lat="43.94181489944458">
                <ele>383.222656</ele>
                <time>2011-05-29T13:25:06.000Z</time>
                <name>Position 409</name>
            </trkpt>
            <trkpt lon="5.22232532501221" lat="43.94192218780518">
                <ele>385.625977</ele>
                <time>2011-05-29T13:25:15.000Z</time>
                <name>Position 410</name>
            </trkpt>
            <trkpt lon="5.22234678268433" lat="43.94192218780518">
                <ele>385.625977</ele>
                <time>2011-05-29T13:25:17.000Z</time>
                <name>Position 411</name>
            </trkpt>
            <trkpt lon="5.22236824035645" lat="43.94196510314941">
                <ele>385.145386</ele>
                <time>2011-05-29T13:25:20.000Z</time>
                <name>Position 412</name>
            </trkpt>
            <trkpt lon="5.22236824035645" lat="43.94209384918213">
                <ele>386.106689</ele>
                <time>2011-05-29T13:25:33.000Z</time>
                <name>Position 413</name>
            </trkpt>
            <trkpt lon="5.2224326133728" lat="43.94217967987061">
                <ele>386.106689</ele>
                <time>2011-05-29T13:25:40.000Z</time>
                <name>Position 414</name>
            </trkpt>
            <trkpt lon="5.22249698638916" lat="43.94224405288696">
                <ele>385.145386</ele>
                <time>2011-05-29T13:25:53.000Z</time>
                <name>Position 415</name>
            </trkpt>
            <trkpt lon="5.2225399017334" lat="43.9422869682312">
                <ele>386.587402</ele>
                <time>2011-05-29T13:25:57.000Z</time>
                <name>Position 416</name>
            </trkpt>
            <trkpt lon="5.22271156311035" lat="43.94237279891968">
                <ele>388.990601</ele>
                <time>2011-05-29T13:26:08.000Z</time>
                <name>Position 417</name>
            </trkpt>
            <trkpt lon="5.22281885147095" lat="43.94248008728027">
                <ele>391.393799</ele>
                <time>2011-05-29T13:26:18.000Z</time>
                <name>Position 418</name>
            </trkpt>
            <trkpt lon="5.2229905128479" lat="43.94256591796875">
                <ele>392.355347</ele>
                <time>2011-05-29T13:26:31.000Z</time>
                <name>Position 419</name>
            </trkpt>
            <trkpt lon="5.22311925888062" lat="43.94252300262451">
                <ele>390.913208</ele>
                <time>2011-05-29T13:26:39.000Z</time>
                <name>Position 420</name>
            </trkpt>
            <trkpt lon="5.22329092025757" lat="43.94256591796875">
                <ele>388.029297</ele>
                <time>2011-05-29T13:26:51.000Z</time>
                <name>Position 421</name>
            </trkpt>
            <trkpt lon="5.22341966629028" lat="43.94254446029663">
                <ele>379.858032</ele>
                <time>2011-05-29T13:27:12.000Z</time>
                <name>Position 422</name>
            </trkpt>
            <trkpt lon="5.22348403930664" lat="43.94241571426392">
                <ele>380.819458</ele>
                <time>2011-05-29T13:27:25.000Z</time>
                <name>Position 423</name>
            </trkpt>
            <trkpt lon="5.223548412323" lat="43.94241571426392">
                <ele>383.703247</ele>
                <time>2011-05-29T13:27:29.000Z</time>
                <name>Position 424</name>
            </trkpt>
            <trkpt lon="5.22365570068359" lat="43.94248008728027">
                <ele>387.067993</ele>
                <time>2011-05-29T13:27:37.000Z</time>
                <name>Position 425</name>
            </trkpt>
            <trkpt lon="5.22372007369995" lat="43.94254446029663">
                <ele>388.029297</ele>
                <time>2011-05-29T13:27:46.000Z</time>
                <name>Position 426</name>
            </trkpt>
            <trkpt lon="5.22387027740479" lat="43.94260883331299">
                <ele>388.990601</ele>
                <time>2011-05-29T13:27:57.000Z</time>
                <name>Position 427</name>
            </trkpt>
            <trkpt lon="5.22402048110962" lat="43.94271612167358">
                <ele>397.161743</ele>
                <time>2011-05-29T13:28:09.000Z</time>
                <name>Position 428</name>
            </trkpt>
            <trkpt lon="5.2241063117981" lat="43.94275903701782">
                <ele>399.084351</ele>
                <time>2011-05-29T13:28:16.000Z</time>
                <name>Position 429</name>
            </trkpt>
            <trkpt lon="5.22414922714233" lat="43.94280195236206">
                <ele>400.045898</ele>
                <time>2011-05-29T13:28:19.000Z</time>
                <name>Position 430</name>
            </trkpt>
            <trkpt lon="5.22417068481445" lat="43.9428448677063">
                <ele>400.045898</ele>
                <time>2011-05-29T13:28:23.000Z</time>
                <name>Position 431</name>
            </trkpt>
            <trkpt lon="5.22419214248657" lat="43.94288778305054">
                <ele>400.045898</ele>
                <time>2011-05-29T13:28:26.000Z</time>
                <name>Position 432</name>
            </trkpt>
            <trkpt lon="5.22421360015869" lat="43.94301652908325">
                <ele>401.00708</ele>
                <time>2011-05-29T13:28:36.000Z</time>
                <name>Position 433</name>
            </trkpt>
            <trkpt lon="5.22421360015869" lat="43.94305944442749">
                <ele>400.045898</ele>
                <time>2011-05-29T13:28:40.000Z</time>
                <name>Position 434</name>
            </trkpt>
            <trkpt lon="5.22425651550293" lat="43.94318819046021">
                <ele>400.526489</ele>
                <time>2011-05-29T13:28:51.000Z</time>
                <name>Position 435</name>
            </trkpt>
            <trkpt lon="5.22427797317505" lat="43.94323110580444">
                <ele>401.487793</ele>
                <time>2011-05-29T13:28:53.000Z</time>
                <name>Position 436</name>
            </trkpt>
            <trkpt lon="5.22425651550293" lat="43.94331693649292">
                <ele>404.371704</ele>
                <time>2011-05-29T13:29:01.000Z</time>
                <name>Position 437</name>
            </trkpt>
            <trkpt lon="5.22423505783081" lat="43.94335985183716">
                <ele>405.333008</ele>
                <time>2011-05-29T13:29:05.000Z</time>
                <name>Position 438</name>
            </trkpt>
            <trkpt lon="5.22421360015869" lat="43.9434027671814">
                <ele>405.813721</ele>
                <time>2011-05-29T13:29:09.000Z</time>
                <name>Position 439</name>
            </trkpt>
            <trkpt lon="5.22417068481445" lat="43.94348859786987">
                <ele>406.294312</ele>
                <time>2011-05-29T13:29:19.000Z</time>
                <name>Position 440</name>
            </trkpt>
            <trkpt lon="5.22414922714233" lat="43.94359588623047">
                <ele>404.852295</ele>
                <time>2011-05-29T13:29:27.000Z</time>
                <name>Position 441</name>
            </trkpt>
            <trkpt lon="5.22408485412598" lat="43.94368171691895">
                <ele>403.4104</ele>
                <time>2011-05-29T13:29:36.000Z</time>
                <name>Position 442</name>
            </trkpt>
            <trkpt lon="5.22408485412598" lat="43.94376754760742">
                <ele>401.968506</ele>
                <time>2011-05-29T13:29:48.000Z</time>
                <name>Position 443</name>
            </trkpt>
            <trkpt lon="5.22408485412598" lat="43.94383192062378">
                <ele>401.00708</ele>
                <time>2011-05-29T13:30:01.000Z</time>
                <name>Position 444</name>
            </trkpt>
            <trkpt lon="5.2241063117981" lat="43.94396066665649">
                <ele>402.929688</ele>
                <time>2011-05-29T13:30:11.000Z</time>
                <name>Position 445</name>
            </trkpt>
            <trkpt lon="5.22412776947021" lat="43.94400358200073">
                <ele>403.4104</ele>
                <time>2011-05-29T13:30:16.000Z</time>
                <name>Position 446</name>
            </trkpt>
            <trkpt lon="5.22412776947021" lat="43.94404649734497">
                <ele>403.4104</ele>
                <time>2011-05-29T13:30:19.000Z</time>
                <name>Position 447</name>
            </trkpt>
            <trkpt lon="5.22414922714233" lat="43.94413232803345">
                <ele>404.371704</ele>
                <time>2011-05-29T13:30:25.000Z</time>
                <name>Position 448</name>
            </trkpt>
            <trkpt lon="5.22417068481445" lat="43.94415378570557">
                <ele>404.371704</ele>
                <time>2011-05-29T13:30:27.000Z</time>
                <name>Position 449</name>
            </trkpt>
            <trkpt lon="5.22421360015869" lat="43.94419670104981">
                <ele>405.333008</ele>
                <time>2011-05-29T13:30:35.000Z</time>
                <name>Position 450</name>
            </trkpt>
            <trkpt lon="5.22427797317505" lat="43.94428253173828">
                <ele>406.774902</ele>
                <time>2011-05-29T13:30:45.000Z</time>
                <name>Position 451</name>
            </trkpt>
            <trkpt lon="5.22432088851929" lat="43.94432544708252">
                <ele>407.255615</ele>
                <time>2011-05-29T13:30:51.000Z</time>
                <name>Position 452</name>
            </trkpt>
            <trkpt lon="5.22440671920776" lat="43.94438982009888">
                <ele>406.774902</ele>
                <time>2011-05-29T13:31:02.000Z</time>
                <name>Position 453</name>
            </trkpt>
            <trkpt lon="5.22449254989624" lat="43.94447565078735">
                <ele>407.255615</ele>
                <time>2011-05-29T13:31:10.000Z</time>
                <name>Position 454</name>
            </trkpt>
            <trkpt lon="5.2245569229126" lat="43.94456148147583">
                <ele>408.217041</ele>
                <time>2011-05-29T13:31:19.000Z</time>
                <name>Position 455</name>
            </trkpt>
            <trkpt lon="5.22457838058472" lat="43.94460439682007">
                <ele>409.659058</ele>
                <time>2011-05-29T13:31:24.000Z</time>
                <name>Position 456</name>
            </trkpt>
            <trkpt lon="5.2245569229126" lat="43.94469022750855">
                <ele>409.659058</ele>
                <time>2011-05-29T13:31:32.000Z</time>
                <name>Position 457</name>
            </trkpt>
            <trkpt lon="5.2245569229126" lat="43.94469022750855">
                <ele>409.659058</ele>
                <time>2011-05-29T13:31:33.000Z</time>
                <name>Position 458</name>
            </trkpt>
            <trkpt lon="5.22457838058472" lat="43.94471168518066">
                <ele>409.659058</ele>
                <time>2011-05-29T13:31:35.000Z</time>
                <name>Position 459</name>
            </trkpt>
            <trkpt lon="5.22464275360107" lat="43.94479751586914">
                <ele>412.542847</ele>
                <time>2011-05-29T13:31:43.000Z</time>
                <name>Position 460</name>
            </trkpt>
            <trkpt lon="5.22466421127319" lat="43.94481897354126">
                <ele>413.504272</ele>
                <time>2011-05-29T13:31:45.000Z</time>
                <name>Position 461</name>
            </trkpt>
            <trkpt lon="5.22470712661743" lat="43.94484043121338">
                <ele>414.465454</ele>
                <time>2011-05-29T13:31:49.000Z</time>
                <name>Position 462</name>
            </trkpt>
            <trkpt lon="5.22481441497803" lat="43.94490480422974">
                <ele>416.868896</ele>
                <time>2011-05-29T13:32:01.000Z</time>
                <name>Position 463</name>
            </trkpt>
            <trkpt lon="5.2249002456665" lat="43.94494771957398">
                <ele>417.8302</ele>
                <time>2011-05-29T13:32:10.000Z</time>
                <name>Position 464</name>
            </trkpt>
            <trkpt lon="5.22498607635498" lat="43.94499063491821">
                <ele>418.310791</ele>
                <time>2011-05-29T13:32:18.000Z</time>
                <name>Position 465</name>
            </trkpt>
            <trkpt lon="5.22509336471558" lat="43.94501209259033">
                <ele>416.388184</ele>
                <time>2011-05-29T13:32:30.000Z</time>
                <name>Position 466</name>
            </trkpt>
            <trkpt lon="5.22509336471558" lat="43.94499063491821">
                <ele>415.907471</ele>
                <time>2011-05-29T13:32:33.000Z</time>
                <name>Position 467</name>
            </trkpt>
            <trkpt lon="5.22505044937134" lat="43.94490480422974">
                <ele>417.8302</ele>
                <time>2011-05-29T13:32:43.000Z</time>
                <name>Position 468</name>
            </trkpt>
            <trkpt lon="5.22502899169922" lat="43.9448618888855">
                <ele>419.272217</ele>
                <time>2011-05-29T13:32:53.000Z</time>
                <name>Position 469</name>
            </trkpt>
            <trkpt lon="5.22509336471558" lat="43.94488334655762">
                <ele>419.752808</ele>
                <time>2011-05-29T13:33:00.000Z</time>
                <name>Position 470</name>
            </trkpt>
            <trkpt lon="5.22515773773193" lat="43.94488334655762">
                <ele>420.714111</ele>
                <time>2011-05-29T13:33:09.000Z</time>
                <name>Position 471</name>
            </trkpt>
            <trkpt lon="5.22520065307617" lat="43.94488334655762">
                <ele>421.194824</ele>
                <time>2011-05-29T13:33:12.000Z</time>
                <name>Position 472</name>
            </trkpt>
            <trkpt lon="5.22524356842041" lat="43.9448618888855">
                <ele>420.233398</ele>
                <time>2011-05-29T13:33:22.000Z</time>
                <name>Position 473</name>
            </trkpt>
            <trkpt lon="5.22537231445313" lat="43.94492626190186">
                <ele>421.675415</ele>
                <time>2011-05-29T13:33:35.000Z</time>
                <name>Position 474</name>
            </trkpt>
            <trkpt lon="5.2254581451416" lat="43.94494771957398">
                <ele>421.675415</ele>
                <time>2011-05-29T13:33:42.000Z</time>
                <name>Position 475</name>
            </trkpt>
            <trkpt lon="5.22550106048584" lat="43.94496917724609">
                <ele>422.156006</ele>
                <time>2011-05-29T13:33:46.000Z</time>
                <name>Position 476</name>
            </trkpt>
            <trkpt lon="5.22552251815796" lat="43.94499063491821">
                <ele>422.156006</ele>
                <time>2011-05-29T13:33:48.000Z</time>
                <name>Position 477</name>
            </trkpt>
            <trkpt lon="5.2255654335022" lat="43.94499063491821">
                <ele>422.156006</ele>
                <time>2011-05-29T13:33:52.000Z</time>
                <name>Position 478</name>
            </trkpt>
            <trkpt lon="5.22565126419067" lat="43.94501209259033">
                <ele>422.156006</ele>
                <time>2011-05-29T13:34:00.000Z</time>
                <name>Position 479</name>
            </trkpt>
            <trkpt lon="5.22575855255127" lat="43.94509792327881">
                <ele>421.675415</ele>
                <time>2011-05-29T13:34:10.000Z</time>
                <name>Position 480</name>
            </trkpt>
            <trkpt lon="5.22586584091187" lat="43.94516229629517">
                <ele>422.636719</ele>
                <time>2011-05-29T13:34:21.000Z</time>
                <name>Position 481</name>
            </trkpt>
            <trkpt lon="5.22599458694458" lat="43.94524812698364">
                <ele>421.194824</ele>
                <time>2011-05-29T13:34:33.000Z</time>
                <name>Position 482</name>
            </trkpt>
            <trkpt lon="5.22612333297729" lat="43.94533395767212">
                <ele>420.714111</ele>
                <time>2011-05-29T13:34:45.000Z</time>
                <name>Position 483</name>
            </trkpt>
            <trkpt lon="5.22629499435425" lat="43.94539833068848">
                <ele>423.117432</ele>
                <time>2011-05-29T13:34:58.000Z</time>
                <name>Position 484</name>
            </trkpt>
            <trkpt lon="5.22642374038696" lat="43.94546270370483">
                <ele>424.078735</ele>
                <time>2011-05-29T13:35:09.000Z</time>
                <name>Position 485</name>
            </trkpt>
            <trkpt lon="5.22650957107544" lat="43.94550561904907">
                <ele>423.598022</ele>
                <time>2011-05-29T13:35:18.000Z</time>
                <name>Position 486</name>
            </trkpt>
            <trkpt lon="5.22661685943604" lat="43.94556999206543">
                <ele>422.636719</ele>
                <time>2011-05-29T13:35:31.000Z</time>
                <name>Position 487</name>
            </trkpt>
            <trkpt lon="5.22676706314087" lat="43.94565582275391">
                <ele>419.752808</ele>
                <time>2011-05-29T13:35:45.000Z</time>
                <name>Position 488</name>
            </trkpt>
            <trkpt lon="5.22683143615723" lat="43.94563436508179">
                <ele>420.233398</ele>
                <time>2011-05-29T13:37:22.000Z</time>
                <name>Position 489</name>
            </trkpt>
            <trkpt lon="5.22683143615723" lat="43.94561290740967">
                <ele>421.675415</ele>
                <time>2011-05-29T13:37:59.000Z</time>
                <name>Position 490</name>
            </trkpt>
            <trkpt lon="5.22680997848511" lat="43.94561290740967">
                <ele>422.636719</ele>
                <time>2011-05-29T13:41:28.000Z</time>
                <name>Position 491</name>
            </trkpt>
            <trkpt lon="5.22685289382935" lat="43.94565582275391">
                <ele>425.040161</ele>
                <time>2011-05-29T13:44:59.000Z</time>
                <name>Position 492</name>
            </trkpt>
            <trkpt lon="5.22693872451782" lat="43.94569873809815">
                <ele>425.520752</ele>
                <time>2011-05-29T13:45:09.000Z</time>
                <name>Position 493</name>
            </trkpt>
            <trkpt lon="5.22704601287842" lat="43.94574165344238">
                <ele>425.520752</ele>
                <time>2011-05-29T13:45:19.000Z</time>
                <name>Position 494</name>
            </trkpt>
            <trkpt lon="5.22715330123901" lat="43.94580602645874">
                <ele>426.482056</ele>
                <time>2011-05-29T13:45:30.000Z</time>
                <name>Position 495</name>
            </trkpt>
            <trkpt lon="5.22728204727173" lat="43.94584894180298">
                <ele>426.001343</ele>
                <time>2011-05-29T13:45:43.000Z</time>
                <name>Position 496</name>
            </trkpt>
            <trkpt lon="5.22728204727173" lat="43.94582748413086">
                <ele>426.962769</ele>
                <time>2011-05-29T13:45:59.000Z</time>
                <name>Position 497</name>
            </trkpt>
            <trkpt lon="5.22726058959961" lat="43.94572019577026">
                <ele>431.288574</ele>
                <time>2011-05-29T13:46:15.000Z</time>
                <name>Position 498</name>
            </trkpt>
            <trkpt lon="5.22719621658325" lat="43.94565582275391">
                <ele>434.172607</ele>
                <time>2011-05-29T13:47:09.000Z</time>
                <name>Position 499</name>
            </trkpt>
            <trkpt lon="5.22713184356689" lat="43.94554853439331">
                <ele>436.575928</ele>
                <time>2011-05-29T13:47:20.000Z</time>
                <name>Position 500</name>
            </trkpt>
            <trkpt lon="5.22704601287842" lat="43.94546270370483">
                <ele>438.017822</ele>
                <time>2011-05-29T13:47:33.000Z</time>
                <name>Position 501</name>
            </trkpt>
            <trkpt lon="5.22704601287842" lat="43.94546270370483">
                <ele>438.017822</ele>
                <time>2011-05-29T13:47:48.000Z</time>
                <name>Position 502</name>
            </trkpt>
            <trkpt lon="5.22704601287842" lat="43.94546270370483">
                <ele>438.017822</ele>
                <time>2011-05-29T13:48:09.000Z</time>
                <name>Position 503</name>
            </trkpt>
            <trkpt lon="5.2270245552063" lat="43.94546270370483">
                <ele>437.537109</ele>
                <time>2011-05-29T13:48:19.000Z</time>
                <name>Position 504</name>
            </trkpt>
            <trkpt lon="5.22687435150146" lat="43.94537687301636">
                <ele>437.056519</ele>
                <time>2011-05-29T13:48:31.000Z</time>
                <name>Position 505</name>
            </trkpt>
            <trkpt lon="5.22670269012451" lat="43.94526958465576">
                <ele>438.017822</ele>
                <time>2011-05-29T13:48:45.000Z</time>
                <name>Position 506</name>
            </trkpt>
            <trkpt lon="5.2265739440918" lat="43.94518375396729">
                <ele>437.056519</ele>
                <time>2011-05-29T13:48:57.000Z</time>
                <name>Position 507</name>
            </trkpt>
            <trkpt lon="5.22644519805908" lat="43.94509792327881">
                <ele>438.017822</ele>
                <time>2011-05-29T13:49:08.000Z</time>
                <name>Position 508</name>
            </trkpt>
            <trkpt lon="5.22635936737061" lat="43.94503355026245">
                <ele>439.94043</ele>
                <time>2011-05-29T13:49:14.000Z</time>
                <name>Position 509</name>
            </trkpt>
            <trkpt lon="5.22625207901001" lat="43.94490480422974">
                <ele>440.901855</ele>
                <time>2011-05-29T13:49:26.000Z</time>
                <name>Position 510</name>
            </trkpt>
            <trkpt lon="5.22623062133789" lat="43.9448618888855">
                <ele>441.382446</ele>
                <time>2011-05-29T13:49:29.000Z</time>
                <name>Position 511</name>
            </trkpt>
            <trkpt lon="5.22618770599365" lat="43.94484043121338">
                <ele>440.901855</ele>
                <time>2011-05-29T13:49:33.000Z</time>
                <name>Position 512</name>
            </trkpt>
            <trkpt lon="5.22618770599365" lat="43.94481897354126">
                <ele>441.382446</ele>
                <time>2011-05-29T13:49:34.000Z</time>
                <name>Position 513</name>
            </trkpt>
            <trkpt lon="5.22605895996094" lat="43.94469022750855">
                <ele>444.266479</ele>
                <time>2011-05-29T13:49:46.000Z</time>
                <name>Position 514</name>
            </trkpt>
            <trkpt lon="5.22597312927246" lat="43.94456148147583">
                <ele>443.305054</ele>
                <time>2011-05-29T13:49:57.000Z</time>
                <name>Position 515</name>
            </trkpt>
            <trkpt lon="5.22584438323975" lat="43.94443273544312">
                <ele>445.708374</ele>
                <time>2011-05-29T13:50:11.000Z</time>
                <name>Position 516</name>
            </trkpt>
            <trkpt lon="5.22573709487915" lat="43.9443039894104">
                <ele>447.630981</ele>
                <time>2011-05-29T13:50:23.000Z</time>
                <name>Position 517</name>
            </trkpt>
            <trkpt lon="5.22562980651855" lat="43.94415378570557">
                <ele>448.111816</ele>
                <time>2011-05-29T13:50:37.000Z</time>
                <name>Position 518</name>
            </trkpt>
            <trkpt lon="5.22554397583008" lat="43.94400358200073">
                <ele>447.630981</ele>
                <time>2011-05-29T13:50:50.000Z</time>
                <name>Position 519</name>
            </trkpt>
            <trkpt lon="5.2254581451416" lat="43.9438533782959">
                <ele>449.553711</ele>
                <time>2011-05-29T13:51:04.000Z</time>
                <name>Position 520</name>
            </trkpt>
            <trkpt lon="5.22547960281372" lat="43.94381046295166">
                <ele>449.072998</ele>
                <time>2011-05-29T13:51:08.000Z</time>
                <name>Position 521</name>
            </trkpt>
            <trkpt lon="5.22550106048584" lat="43.94381046295166">
                <ele>449.072998</ele>
                <time>2011-05-29T13:51:10.000Z</time>
                <name>Position 522</name>
            </trkpt>
            <trkpt lon="5.2255654335022" lat="43.94383192062378">
                <ele>450.515015</ele>
                <time>2011-05-29T13:51:17.000Z</time>
                <name>Position 523</name>
            </trkpt>
            <trkpt lon="5.22554397583008" lat="43.94381046295166">
                <ele>450.034424</ele>
                <time>2011-05-29T13:51:28.000Z</time>
                <name>Position 524</name>
            </trkpt>
            <trkpt lon="5.2254581451416" lat="43.94368171691895">
                <ele>448.592407</ele>
                <time>2011-05-29T13:51:39.000Z</time>
                <name>Position 525</name>
            </trkpt>
            <trkpt lon="5.22547960281372" lat="43.94353151321411">
                <ele>448.592407</ele>
                <time>2011-05-29T13:51:51.000Z</time>
                <name>Position 526</name>
            </trkpt>
            <trkpt lon="5.22552251815796" lat="43.94338130950928">
                <ele>450.995605</ele>
                <time>2011-05-29T13:52:03.000Z</time>
                <name>Position 527</name>
            </trkpt>
            <trkpt lon="5.22560834884644" lat="43.94320964813232">
                <ele>451.957031</ele>
                <time>2011-05-29T13:52:18.000Z</time>
                <name>Position 528</name>
            </trkpt>
            <trkpt lon="5.22573709487915" lat="43.94303798675537">
                <ele>453.879639</ele>
                <time>2011-05-29T13:52:34.000Z</time>
                <name>Position 529</name>
            </trkpt>
            <trkpt lon="5.22588729858398" lat="43.94290924072266">
                <ele>455.321533</ele>
                <time>2011-05-29T13:52:48.000Z</time>
                <name>Position 530</name>
            </trkpt>
            <trkpt lon="5.22597312927246" lat="43.94282341003418">
                <ele>453.398926</ele>
                <time>2011-05-29T13:52:58.000Z</time>
                <name>Position 531</name>
            </trkpt>
            <trkpt lon="5.225940942764282" lat="43.94274977141239">
                <ele>449.553711</ele>
                <time>2011-05-29T13:53:08.000Z</time>
                <name>Position 532</name>
            </trkpt>
            <trkpt lon="5.225946307182312" lat="43.94260299391537">
                <ele>445.708374</ele>
                <time>2011-05-29T13:53:21.000Z</time>
                <name>Position 533</name>
            </trkpt>
            <trkpt lon="5.225940942764282" lat="43.94250256699808">
                <ele>442.824463</ele>
                <time>2011-05-29T13:53:30.000Z</time>
                <name>Position 534</name>
            </trkpt>
            <trkpt lon="5.225940942764282" lat="43.94237123923489">
                <ele>442.343872</ele>
                <time>2011-05-29T14:00:09.000Z</time>
                <name>Position 535</name>
            </trkpt>
            <trkpt lon="5.22588729858398" lat="43.94215822219849">
                <ele>441.863159</ele>
                <time>2011-05-29T14:02:11.000Z</time>
                <name>Position 536</name>
            </trkpt>
            <trkpt lon="5.22578001022339" lat="43.94205093383789">
                <ele>444.74707</ele>
                <time>2011-05-29T14:02:25.000Z</time>
                <name>Position 537</name>
            </trkpt>
            <trkpt lon="5.22571563720703" lat="43.94198656082153">
                <ele>448.111816</ele>
                <time>2011-05-29T14:02:35.000Z</time>
                <name>Position 538</name>
            </trkpt>
            <trkpt lon="5.22565126419067" lat="43.94196510314941">
                <ele>448.592407</ele>
                <time>2011-05-29T14:02:45.000Z</time>
                <name>Position 539</name>
            </trkpt>
            <trkpt lon="5.2255654335022" lat="43.94190073013306">
                <ele>450.034424</ele>
                <time>2011-05-29T14:02:56.000Z</time>
                <name>Position 540</name>
            </trkpt>
            <trkpt lon="5.22552251815796" lat="43.94187927246094">
                <ele>451.476318</ele>
                <time>2011-05-29T14:03:01.000Z</time>
                <name>Position 541</name>
            </trkpt>
            <trkpt lon="5.22541522979736" lat="43.94179344177246">
                <ele>454.84082</ele>
                <time>2011-05-29T14:03:13.000Z</time>
                <name>Position 542</name>
            </trkpt>
            <trkpt lon="5.22537231445313" lat="43.94175052642822">
                <ele>456.76355</ele>
                <time>2011-05-29T14:03:23.000Z</time>
                <name>Position 543</name>
            </trkpt>
            <trkpt lon="5.22526502609253" lat="43.94168615341187">
                <ele>457.244263</ele>
                <time>2011-05-29T14:03:34.000Z</time>
                <name>Position 544</name>
            </trkpt>
            <trkpt lon="5.22517919540405" lat="43.94160032272339">
                <ele>457.724976</ele>
                <time>2011-05-29T14:03:46.000Z</time>
                <name>Position 545</name>
            </trkpt>
            <trkpt lon="5.22507190704346" lat="43.94147157669067">
                <ele>458.205566</ele>
                <time>2011-05-29T14:04:00.000Z</time>
                <name>Position 546</name>
            </trkpt>
            <trkpt lon="5.22507190704346" lat="43.94136428833008">
                <ele>459.16687</ele>
                <time>2011-05-29T14:04:12.000Z</time>
                <name>Position 547</name>
            </trkpt>
            <trkpt lon="5.22509336471558" lat="43.94132137298584">
                <ele>459.16687</ele>
                <time>2011-05-29T14:04:20.000Z</time>
                <name>Position 548</name>
            </trkpt>
            <trkpt lon="5.22509336471558" lat="43.9412784576416">
                <ele>459.647583</ele>
                <time>2011-05-29T14:04:23.000Z</time>
                <name>Position 549</name>
            </trkpt>
            <trkpt lon="5.2251148223877" lat="43.94121408462524">
                <ele>461.089478</ele>
                <time>2011-05-29T14:04:33.000Z</time>
                <name>Position 550</name>
            </trkpt>
            <trkpt lon="5.22513628005981" lat="43.94110679626465">
                <ele>465.415527</ele>
                <time>2011-05-29T14:04:44.000Z</time>
                <name>Position 551</name>
            </trkpt>
            <trkpt lon="5.22515773773193" lat="43.94099950790405">
                <ele>469.260742</ele>
                <time>2011-05-29T14:04:57.000Z</time>
                <name>Position 552</name>
            </trkpt>
            <trkpt lon="5.22515773773193" lat="43.94091367721558">
                <ele>472.144653</ele>
                <time>2011-05-29T14:05:10.000Z</time>
                <name>Position 553</name>
            </trkpt>
            <trkpt lon="5.22515773773193" lat="43.9408278465271">
                <ele>474.067261</ele>
                <time>2011-05-29T14:05:21.000Z</time>
                <name>Position 554</name>
            </trkpt>
            <trkpt lon="5.22517919540405" lat="43.94074201583862">
                <ele>475.989868</ele>
                <time>2011-05-29T14:05:32.000Z</time>
                <name>Position 555</name>
            </trkpt>
            <trkpt lon="5.22522211074829" lat="43.94065618515015">
                <ele>478.393188</ele>
                <time>2011-05-29T14:05:43.000Z</time>
                <name>Position 556</name>
            </trkpt>
            <trkpt lon="5.22528648376465" lat="43.94057035446167">
                <ele>480.796631</ele>
                <time>2011-05-29T14:05:56.000Z</time>
                <name>Position 557</name>
            </trkpt>
            <trkpt lon="5.22526502609253" lat="43.94046306610107">
                <ele>484.161133</ele>
                <time>2011-05-29T14:06:08.000Z</time>
                <name>Position 558</name>
            </trkpt>
            <trkpt lon="5.22526502609253" lat="43.94044160842896">
                <ele>484.641846</ele>
                <time>2011-05-29T14:06:10.000Z</time>
                <name>Position 559</name>
            </trkpt>
            <trkpt lon="5.22530794143677" lat="43.9403772354126">
                <ele>485.122437</ele>
                <time>2011-05-29T14:06:19.000Z</time>
                <name>Position 560</name>
            </trkpt>
            <trkpt lon="5.22537231445313" lat="43.940269947052">
                <ele>487.525635</ele>
                <time>2011-05-29T14:06:32.000Z</time>
                <name>Position 561</name>
            </trkpt>
            <trkpt lon="5.22537231445313" lat="43.94018411636353">
                <ele>487.045044</ele>
                <time>2011-05-29T14:06:42.000Z</time>
                <name>Position 562</name>
            </trkpt>
            <trkpt lon="5.22543668746948" lat="43.94005537033081">
                <ele>488.487183</ele>
                <time>2011-05-29T14:06:56.000Z</time>
                <name>Position 563</name>
            </trkpt>
            <trkpt lon="5.2254581451416" lat="43.93999099731445">
                <ele>487.525635</ele>
                <time>2011-05-29T14:07:03.000Z</time>
                <name>Position 564</name>
            </trkpt>
            <trkpt lon="5.22552251815796" lat="43.93988370895386">
                <ele>488.487183</ele>
                <time>2011-05-29T14:07:14.000Z</time>
                <name>Position 565</name>
            </trkpt>
            <trkpt lon="5.22554397583008" lat="43.93988370895386">
                <ele>488.487183</ele>
                <time>2011-05-29T14:07:16.000Z</time>
                <name>Position 566</name>
            </trkpt>
            <trkpt lon="5.2255654335022" lat="43.93988370895386">
                <ele>488.00647</ele>
                <time>2011-05-29T14:07:18.000Z</time>
                <name>Position 567</name>
            </trkpt>
            <trkpt lon="5.22567272186279" lat="43.9398193359375">
                <ele>489.929077</ele>
                <time>2011-05-29T14:07:29.000Z</time>
                <name>Position 568</name>
            </trkpt>
            <trkpt lon="5.22567272186279" lat="43.9398193359375">
                <ele>490.40979</ele>
                <time>2011-05-29T14:07:30.000Z</time>
                <name>Position 569</name>
            </trkpt>
            <trkpt lon="5.22573709487915" lat="43.93977642059326">
                <ele>491.370972</ele>
                <time>2011-05-29T14:07:35.000Z</time>
                <name>Position 570</name>
            </trkpt>
            <trkpt lon="5.22575855255127" lat="43.93975496292114">
                <ele>491.370972</ele>
                <time>2011-05-29T14:07:37.000Z</time>
                <name>Position 571</name>
            </trkpt>
            <trkpt lon="5.22580146789551" lat="43.9397120475769">
                <ele>490.890381</ele>
                <time>2011-05-29T14:07:42.000Z</time>
                <name>Position 572</name>
            </trkpt>
            <trkpt lon="5.22584438323975" lat="43.93966913223267">
                <ele>490.40979</ele>
                <time>2011-05-29T14:07:48.000Z</time>
                <name>Position 573</name>
            </trkpt>
            <trkpt lon="5.22593021392822" lat="43.93954038619995">
                <ele>489.448364</ele>
                <time>2011-05-29T14:08:00.000Z</time>
                <name>Position 574</name>
            </trkpt>
            <trkpt lon="5.22603750228882" lat="43.93949747085571">
                <ele>489.929077</ele>
                <time>2011-05-29T14:08:09.000Z</time>
                <name>Position 575</name>
            </trkpt>
            <trkpt lon="5.22605895996094" lat="43.93947601318359">
                <ele>490.40979</ele>
                <time>2011-05-29T14:08:12.000Z</time>
                <name>Position 576</name>
            </trkpt>
            <trkpt lon="5.22612333297729" lat="43.93943309783936">
                <ele>490.40979</ele>
                <time>2011-05-29T14:08:25.000Z</time>
                <name>Position 577</name>
            </trkpt>
            <trkpt lon="5.22612333297729" lat="43.93939018249512">
                <ele>490.40979</ele>
                <time>2011-05-29T14:08:30.000Z</time>
                <name>Position 578</name>
            </trkpt>
            <trkpt lon="5.22614479064941" lat="43.93932580947876">
                <ele>489.448364</ele>
                <time>2011-05-29T14:08:37.000Z</time>
                <name>Position 579</name>
            </trkpt>
            <trkpt lon="5.22616624832153" lat="43.93923997879028">
                <ele>487.525635</ele>
                <time>2011-05-29T14:08:46.000Z</time>
                <name>Position 580</name>
            </trkpt>
            <trkpt lon="5.22618770599365" lat="43.93906831741333">
                <ele>485.122437</ele>
                <time>2011-05-29T14:08:59.000Z</time>
                <name>Position 581</name>
            </trkpt>
            <trkpt lon="5.22618770599365" lat="43.93898248672485">
                <ele>482.719238</ele>
                <time>2011-05-29T14:09:08.000Z</time>
                <name>Position 582</name>
            </trkpt>
            <trkpt lon="5.22620916366577" lat="43.93883228302002">
                <ele>484.641846</ele>
                <time>2011-05-29T14:09:21.000Z</time>
                <name>Position 583</name>
            </trkpt>
            <trkpt lon="5.22612333297729" lat="43.93868207931519">
                <ele>485.603027</ele>
                <time>2011-05-29T14:09:34.000Z</time>
                <name>Position 584</name>
            </trkpt>
            <trkpt lon="5.22599458694458" lat="43.93853187561035">
                <ele>485.122437</ele>
                <time>2011-05-29T14:09:49.000Z</time>
                <name>Position 585</name>
            </trkpt>
            <trkpt lon="5.2259087562561" lat="43.93844604492188">
                <ele>484.641846</ele>
                <time>2011-05-29T14:09:57.000Z</time>
                <name>Position 586</name>
            </trkpt>
            <trkpt lon="5.22575855255127" lat="43.93829584121704">
                <ele>484.161133</ele>
                <time>2011-05-29T14:10:12.000Z</time>
                <name>Position 587</name>
            </trkpt>
            <trkpt lon="5.22565126419067" lat="43.93816709518433">
                <ele>484.641846</ele>
                <time>2011-05-29T14:10:25.000Z</time>
                <name>Position 588</name>
            </trkpt>
            <trkpt lon="5.2255654335022" lat="43.93801689147949">
                <ele>484.161133</ele>
                <time>2011-05-29T14:10:39.000Z</time>
                <name>Position 589</name>
            </trkpt>
            <trkpt lon="5.22552251815796" lat="43.9379096031189">
                <ele>482.719238</ele>
                <time>2011-05-29T14:10:50.000Z</time>
                <name>Position 590</name>
            </trkpt>
            <trkpt lon="5.22547960281372" lat="43.93771648406982">
                <ele>479.835083</ele>
                <time>2011-05-29T14:11:05.000Z</time>
                <name>Position 591</name>
            </trkpt>
            <trkpt lon="5.22547960281372" lat="43.93750190734863">
                <ele>475.989868</ele>
                <time>2011-05-29T14:11:23.000Z</time>
                <name>Position 592</name>
            </trkpt>
            <trkpt lon="5.22547960281372" lat="43.93733024597168">
                <ele>473.58667</ele>
                <time>2011-05-29T14:11:38.000Z</time>
                <name>Position 593</name>
            </trkpt>
            <trkpt lon="5.2254581451416" lat="43.9372444152832">
                <ele>475.028687</ele>
                <time>2011-05-29T14:11:50.000Z</time>
                <name>Position 594</name>
            </trkpt>
            <trkpt lon="5.2254581451416" lat="43.93711566925049">
                <ele>475.509277</ele>
                <time>2011-05-29T14:12:02.000Z</time>
                <name>Position 595</name>
            </trkpt>
            <trkpt lon="5.22550106048584" lat="43.93702983856201">
                <ele>475.509277</ele>
                <time>2011-05-29T14:12:12.000Z</time>
                <name>Position 596</name>
            </trkpt>
            <trkpt lon="5.22554397583008" lat="43.9369010925293">
                <ele>475.028687</ele>
                <time>2011-05-29T14:12:27.000Z</time>
                <name>Position 597</name>
            </trkpt>
            <trkpt lon="5.22558689117432" lat="43.93681526184082">
                <ele>475.028687</ele>
                <time>2011-05-29T14:12:37.000Z</time>
                <name>Position 598</name>
            </trkpt>
            <trkpt lon="5.22565126419067" lat="43.93668651580811">
                <ele>474.067261</ele>
                <time>2011-05-29T14:12:50.000Z</time>
                <name>Position 599</name>
            </trkpt>
            <trkpt lon="5.22569417953491" lat="43.93655776977539">
                <ele>472.625366</ele>
                <time>2011-05-29T14:13:03.000Z</time>
                <name>Position 600</name>
            </trkpt>
            <trkpt lon="5.22571563720703" lat="43.93653631210327">
                <ele>472.144653</ele>
                <time>2011-05-29T14:13:06.000Z</time>
                <name>Position 601</name>
            </trkpt>
            <trkpt lon="5.22578001022339" lat="43.93636465072632">
                <ele>472.144653</ele>
                <time>2011-05-29T14:13:20.000Z</time>
                <name>Position 602</name>
            </trkpt>
            <trkpt lon="5.22584438323975" lat="43.93621444702148">
                <ele>470.702637</ele>
                <time>2011-05-29T14:13:34.000Z</time>
                <name>Position 603</name>
            </trkpt>
            <trkpt lon="5.22582292556763" lat="43.93617153167725">
                <ele>470.702637</ele>
                <time>2011-05-29T14:13:37.000Z</time>
                <name>Position 604</name>
            </trkpt>
            <trkpt lon="5.22597312927246" lat="43.93610715866089">
                <ele>469.741333</ele>
                <time>2011-05-29T14:13:51.000Z</time>
                <name>Position 605</name>
            </trkpt>
            <trkpt lon="5.22612333297729" lat="43.93599987030029">
                <ele>467.818726</ele>
                <time>2011-05-29T14:14:05.000Z</time>
                <name>Position 606</name>
            </trkpt>
            <trkpt lon="5.22631645202637" lat="43.93593549728394">
                <ele>466.857422</ele>
                <time>2011-05-29T14:14:18.000Z</time>
                <name>Position 607</name>
            </trkpt>
            <trkpt lon="5.22635936737061" lat="43.93591403961182">
                <ele>466.857422</ele>
                <time>2011-05-29T14:14:21.000Z</time>
                <name>Position 608</name>
            </trkpt>
            <trkpt lon="5.2265739440918" lat="43.93587112426758">
                <ele>466.376709</ele>
                <time>2011-05-29T14:14:35.000Z</time>
                <name>Position 609</name>
            </trkpt>
            <trkpt lon="5.22683143615723" lat="43.93582820892334">
                <ele>464.934814</ele>
                <time>2011-05-29T14:14:53.000Z</time>
                <name>Position 610</name>
            </trkpt>
            <trkpt lon="5.2270245552063" lat="43.93576383590698">
                <ele>460.608765</ele>
                <time>2011-05-29T14:15:08.000Z</time>
                <name>Position 611</name>
            </trkpt>
            <trkpt lon="5.22713184356689" lat="43.93574237823486">
                <ele>458.686157</ele>
                <time>2011-05-29T14:15:16.000Z</time>
                <name>Position 612</name>
            </trkpt>
            <trkpt lon="5.22730350494385" lat="43.93567800521851">
                <ele>456.282959</ele>
                <time>2011-05-29T14:15:27.000Z</time>
                <name>Position 613</name>
            </trkpt>
            <trkpt lon="5.22741079330444" lat="43.93561363220215">
                <ele>453.879639</ele>
                <time>2011-05-29T14:15:39.000Z</time>
                <name>Position 614</name>
            </trkpt>
            <trkpt lon="5.22751808166504" lat="43.93550634384155">
                <ele>452.437622</ele>
                <time>2011-05-29T14:15:52.000Z</time>
                <name>Position 615</name>
            </trkpt>
            <trkpt lon="5.22764682769775" lat="43.9353346824646">
                <ele>450.995605</ele>
                <time>2011-05-29T14:16:07.000Z</time>
                <name>Position 616</name>
            </trkpt>
            <trkpt lon="5.22766828536987" lat="43.93529176712036">
                <ele>450.515015</ele>
                <time>2011-05-29T14:16:14.000Z</time>
                <name>Position 617</name>
            </trkpt>
            <trkpt lon="5.22768974304199" lat="43.93524885177612">
                <ele>448.592407</ele>
                <time>2011-05-29T14:16:20.000Z</time>
                <name>Position 618</name>
            </trkpt>
            <trkpt lon="5.22771120071411" lat="43.93520593643189">
                <ele>448.592407</ele>
                <time>2011-05-29T14:16:24.000Z</time>
                <name>Position 619</name>
            </trkpt>
            <trkpt lon="5.22771120071411" lat="43.93518447875977">
                <ele>449.553711</ele>
                <time>2011-05-29T14:16:28.000Z</time>
                <name>Position 620</name>
            </trkpt>
            <trkpt lon="5.22775411605835" lat="43.93514156341553">
                <ele>448.111816</ele>
                <time>2011-05-29T14:16:34.000Z</time>
                <name>Position 621</name>
            </trkpt>
            <trkpt lon="5.22775411605835" lat="43.93512010574341">
                <ele>447.630981</ele>
                <time>2011-05-29T14:16:36.000Z</time>
                <name>Position 622</name>
            </trkpt>
            <trkpt lon="5.22779703140259" lat="43.93503427505493">
                <ele>447.150269</ele>
                <time>2011-05-29T14:16:45.000Z</time>
                <name>Position 623</name>
            </trkpt>
            <trkpt lon="5.22779703140259" lat="43.93501281738281">
                <ele>447.150269</ele>
                <time>2011-05-29T14:16:47.000Z</time>
                <name>Position 624</name>
            </trkpt>
            <trkpt lon="5.22788286209106" lat="43.93486261367798">
                <ele>446.189087</ele>
                <time>2011-05-29T14:17:02.000Z</time>
                <name>Position 625</name>
            </trkpt>
            <trkpt lon="5.2279257774353" lat="43.93471240997315">
                <ele>447.150269</ele>
                <time>2011-05-29T14:17:15.000Z</time>
                <name>Position 626</name>
            </trkpt>
            <trkpt lon="5.22794723510742" lat="43.93466949462891">
                <ele>447.150269</ele>
                <time>2011-05-29T14:17:20.000Z</time>
                <name>Position 627</name>
            </trkpt>
            <trkpt lon="5.22799015045166" lat="43.93449783325195">
                <ele>445.227661</ele>
                <time>2011-05-29T14:17:35.000Z</time>
                <name>Position 628</name>
            </trkpt>
            <trkpt lon="5.22805452346802" lat="43.93441200256348">
                <ele>444.74707</ele>
                <time>2011-05-29T14:17:45.000Z</time>
                <name>Position 629</name>
            </trkpt>
            <trkpt lon="5.22807598114014" lat="43.93436908721924">
                <ele>444.74707</ele>
                <time>2011-05-29T14:17:49.000Z</time>
                <name>Position 630</name>
            </trkpt>
            <trkpt lon="5.22818326950073" lat="43.93424034118652">
                <ele>443.305054</ele>
                <time>2011-05-29T14:18:03.000Z</time>
                <name>Position 631</name>
            </trkpt>
            <trkpt lon="5.22835493087769" lat="43.93409013748169">
                <ele>440.901855</ele>
                <time>2011-05-29T14:18:20.000Z</time>
                <name>Position 632</name>
            </trkpt>
            <trkpt lon="5.22844076156616" lat="43.93400430679321">
                <ele>439.94043</ele>
                <time>2011-05-29T14:18:29.000Z</time>
                <name>Position 633</name>
            </trkpt>
            <trkpt lon="5.22856950759888" lat="43.93389701843262">
                <ele>438.498535</ele>
                <time>2011-05-29T14:18:43.000Z</time>
                <name>Position 634</name>
            </trkpt>
            <trkpt lon="5.22856950759888" lat="43.9338755607605">
                <ele>438.498535</ele>
                <time>2011-05-29T14:18:44.000Z</time>
                <name>Position 635</name>
            </trkpt>
            <trkpt lon="5.22874116897583" lat="43.93374681472778">
                <ele>436.095215</ele>
                <time>2011-05-29T14:19:00.000Z</time>
                <name>Position 636</name>
            </trkpt>
            <trkpt lon="5.22889137268066" lat="43.93361806869507">
                <ele>434.65332</ele>
                <time>2011-05-29T14:19:14.000Z</time>
                <name>Position 637</name>
            </trkpt>
            <trkpt lon="5.22899866104126" lat="43.93351078033447">
                <ele>434.172607</ele>
                <time>2011-05-29T14:19:26.000Z</time>
                <name>Position 638</name>
            </trkpt>
            <trkpt lon="5.2290415763855" lat="43.93348932266235">
                <ele>433.691895</ele>
                <time>2011-05-29T14:19:29.000Z</time>
                <name>Position 639</name>
            </trkpt>
            <trkpt lon="5.22919178009033" lat="43.93336057662964">
                <ele>431.769165</ele>
                <time>2011-05-29T14:19:44.000Z</time>
                <name>Position 640</name>
            </trkpt>
            <trkpt lon="5.22932052612305" lat="43.93323183059692">
                <ele>430.807983</ele>
                <time>2011-05-29T14:19:59.000Z</time>
                <name>Position 641</name>
            </trkpt>
            <trkpt lon="5.22936344146729" lat="43.93318891525269">
                <ele>429.846558</ele>
                <time>2011-05-29T14:20:03.000Z</time>
                <name>Position 642</name>
            </trkpt>
            <trkpt lon="5.22942781448364" lat="43.93303871154785">
                <ele>429.846558</ele>
                <time>2011-05-29T14:20:16.000Z</time>
                <name>Position 643</name>
            </trkpt>
            <trkpt lon="5.22947072982788" lat="43.93290996551514">
                <ele>429.365967</ele>
                <time>2011-05-29T14:20:30.000Z</time>
                <name>Position 644</name>
            </trkpt>
            <trkpt lon="5.2294921875" lat="43.9327597618103">
                <ele>428.404663</ele>
                <time>2011-05-29T14:20:43.000Z</time>
                <name>Position 645</name>
            </trkpt>
            <trkpt lon="5.22947072982788" lat="43.93252372741699">
                <ele>425.520752</ele>
                <time>2011-05-29T14:20:59.000Z</time>
                <name>Position 646</name>
            </trkpt>
            <trkpt lon="5.22944927215576" lat="43.93239498138428">
                <ele>424.078735</ele>
                <time>2011-05-29T14:21:09.000Z</time>
                <name>Position 647</name>
            </trkpt>
            <trkpt lon="5.22944927215576" lat="43.93237352371216">
                <ele>424.078735</ele>
                <time>2011-05-29T14:21:13.000Z</time>
                <name>Position 648</name>
            </trkpt>
            <trkpt lon="5.22940635681152" lat="43.93222332000732">
                <ele>422.156006</ele>
                <time>2011-05-29T14:21:24.000Z</time>
                <name>Position 649</name>
            </trkpt>
            <trkpt lon="5.22940635681152" lat="43.93215894699097">
                <ele>422.636719</ele>
                <time>2011-05-29T14:21:30.000Z</time>
                <name>Position 650</name>
            </trkpt>
            <trkpt lon="5.22936344146729" lat="43.93194437026978">
                <ele>423.598022</ele>
                <time>2011-05-29T14:21:45.000Z</time>
                <name>Position 651</name>
            </trkpt>
            <trkpt lon="5.22932052612305" lat="43.93177270889282">
                <ele>419.752808</ele>
                <time>2011-05-29T14:22:00.000Z</time>
                <name>Position 652</name>
            </trkpt>
            <trkpt lon="5.22936344146729" lat="43.93157958984375">
                <ele>418.791504</ele>
                <time>2011-05-29T14:22:16.000Z</time>
                <name>Position 653</name>
            </trkpt>
            <trkpt lon="5.2293848991394" lat="43.93138647079468">
                <ele>419.752808</ele>
                <time>2011-05-29T14:22:30.000Z</time>
                <name>Position 654</name>
            </trkpt>
            <trkpt lon="5.2293848991394" lat="43.93125772476196">
                <ele>421.194824</ele>
                <time>2011-05-29T14:22:43.000Z</time>
                <name>Position 655</name>
            </trkpt>
            <trkpt lon="5.22940635681152" lat="43.93110752105713">
                <ele>420.233398</ele>
                <time>2011-05-29T14:23:13.000Z</time>
                <name>Position 656</name>
            </trkpt>
            <trkpt lon="5.22947072982788" lat="43.93091440200806">
                <ele>416.868896</ele>
                <time>2011-05-29T14:23:28.000Z</time>
                <name>Position 657</name>
            </trkpt>
            <trkpt lon="5.22974967956543" lat="43.93087148666382">
                <ele>411.100952</ele>
                <time>2011-05-29T14:23:42.000Z</time>
                <name>Position 658</name>
            </trkpt>
            <trkpt lon="5.23000717163086" lat="43.93104314804077">
                <ele>407.736328</ele>
                <time>2011-05-29T14:23:59.000Z</time>
                <name>Position 659</name>
            </trkpt>
            <trkpt lon="5.23020029067993" lat="43.93119335174561">
                <ele>408.697632</ele>
                <time>2011-05-29T14:24:15.000Z</time>
                <name>Position 660</name>
            </trkpt>
            <trkpt lon="5.23041486740112" lat="43.93127918243408">
                <ele>408.697632</ele>
                <time>2011-05-29T14:24:27.000Z</time>
                <name>Position 661</name>
            </trkpt>
            <trkpt lon="5.23052215576172" lat="43.93125772476196">
                <ele>407.736328</ele>
                <time>2011-05-29T14:24:34.000Z</time>
                <name>Position 662</name>
            </trkpt>
            <trkpt lon="5.23054361343384" lat="43.93106460571289">
                <ele>406.294312</ele>
                <time>2011-05-29T14:24:47.000Z</time>
                <name>Position 663</name>
            </trkpt>
            <trkpt lon="5.23054361343384" lat="43.93087148666382">
                <ele>403.891113</ele>
                <time>2011-05-29T14:25:01.000Z</time>
                <name>Position 664</name>
            </trkpt>
            <trkpt lon="5.23052215576172" lat="43.93063545227051">
                <ele>398.60376</ele>
                <time>2011-05-29T14:25:18.000Z</time>
                <name>Position 665</name>
            </trkpt>
            <trkpt lon="5.23047924041748" lat="43.93044233322144">
                <ele>396.200562</ele>
                <time>2011-05-29T14:25:33.000Z</time>
                <name>Position 666</name>
            </trkpt>
            <trkpt lon="5.23041486740112" lat="43.93024921417236">
                <ele>395.239136</ele>
                <time>2011-05-29T14:25:49.000Z</time>
                <name>Position 667</name>
            </trkpt>
            <trkpt lon="5.23035049438477" lat="43.93005609512329">
                <ele>396.200562</ele>
                <time>2011-05-29T14:26:06.000Z</time>
                <name>Position 668</name>
            </trkpt>
            <trkpt lon="5.23028612136841" lat="43.92986297607422">
                <ele>395.239136</ele>
                <time>2011-05-29T14:26:21.000Z</time>
                <name>Position 669</name>
            </trkpt>
            <trkpt lon="5.23026466369629" lat="43.92977714538574">
                <ele>393.797241</ele>
                <time>2011-05-29T14:26:27.000Z</time>
                <name>Position 670</name>
            </trkpt>
            <trkpt lon="5.23007154464722" lat="43.92964839935303">
                <ele>391.874512</ele>
                <time>2011-05-29T14:26:42.000Z</time>
                <name>Position 671</name>
            </trkpt>
            <trkpt lon="5.22998571395874" lat="43.92964839935303">
                <ele>391.874512</ele>
                <time>2011-05-29T14:26:48.000Z</time>
                <name>Position 672</name>
            </trkpt>
            <trkpt lon="5.22989988327026" lat="43.92969131469727">
                <ele>391.393799</ele>
                <time>2011-05-29T14:26:54.000Z</time>
                <name>Position 673</name>
            </trkpt>
            <trkpt lon="5.22979259490967" lat="43.92975568771362">
                <ele>390.432617</ele>
                <time>2011-05-29T14:27:01.000Z</time>
                <name>Position 674</name>
            </trkpt>
            <trkpt lon="5.22972822189331" lat="43.92977714538574">
                <ele>389.471191</ele>
                <time>2011-05-29T14:27:06.000Z</time>
                <name>Position 675</name>
            </trkpt>
            <trkpt lon="5.22955656051636" lat="43.92982006072998">
                <ele>387.548584</ele>
                <time>2011-05-29T14:27:15.000Z</time>
                <name>Position 676</name>
            </trkpt>
            <trkpt lon="5.22944927215576" lat="43.92966985702515">
                <ele>385.145386</ele>
                <time>2011-05-29T14:27:30.000Z</time>
                <name>Position 677</name>
            </trkpt>
            <trkpt lon="5.22944927215576" lat="43.92943382263184">
                <ele>383.703247</ele>
                <time>2011-05-29T14:27:46.000Z</time>
                <name>Position 678</name>
            </trkpt>
            <trkpt lon="5.22947072982788" lat="43.92921924591065">
                <ele>381.300049</ele>
                <time>2011-05-29T14:28:02.000Z</time>
                <name>Position 679</name>
            </trkpt>
            <trkpt lon="5.2294921875" lat="43.92917633056641">
                <ele>379.858032</ele>
                <time>2011-05-29T14:28:06.000Z</time>
                <name>Position 680</name>
            </trkpt>
            <trkpt lon="5.22951364517212" lat="43.92900466918945">
                <ele>376.974243</ele>
                <time>2011-05-29T14:28:20.000Z</time>
                <name>Position 681</name>
            </trkpt>
            <trkpt lon="5.22957801818848" lat="43.9288330078125">
                <ele>376.974243</ele>
                <time>2011-05-29T14:28:35.000Z</time>
                <name>Position 682</name>
            </trkpt>
            <trkpt lon="5.22962093353271" lat="43.92868280410767">
                <ele>376.012817</ele>
                <time>2011-05-29T14:28:46.000Z</time>
                <name>Position 683</name>
            </trkpt>
            <trkpt lon="5.22970676422119" lat="43.92851114273071">
                <ele>377.935425</ele>
                <time>2011-05-29T14:29:01.000Z</time>
                <name>Position 684</name>
            </trkpt>
            <trkpt lon="5.22981405258179" lat="43.92836093902588">
                <ele>379.858032</ele>
                <time>2011-05-29T14:29:12.000Z</time>
                <name>Position 685</name>
            </trkpt>
            <trkpt lon="5.22989988327026" lat="43.92816781997681">
                <ele>384.184082</ele>
                <time>2011-05-29T14:29:27.000Z</time>
                <name>Position 686</name>
            </trkpt>
            <trkpt lon="5.23000717163086" lat="43.92799615859985">
                <ele>385.625977</ele>
                <time>2011-05-29T14:29:41.000Z</time>
                <name>Position 687</name>
            </trkpt>
            <trkpt lon="5.2300500869751" lat="43.9279317855835">
                <ele>386.587402</ele>
                <time>2011-05-29T14:29:46.000Z</time>
                <name>Position 688</name>
            </trkpt>
            <trkpt lon="5.23011445999146" lat="43.92771720886231">
                <ele>385.145386</ele>
                <time>2011-05-29T14:30:01.000Z</time>
                <name>Position 689</name>
            </trkpt>
            <trkpt lon="5.23022174835205" lat="43.92748117446899">
                <ele>380.338745</ele>
                <time>2011-05-29T14:30:18.000Z</time>
                <name>Position 690</name>
            </trkpt>
            <trkpt lon="5.230393409729" lat="43.92728805541992">
                <ele>370.725586</ele>
                <time>2011-05-29T14:30:36.000Z</time>
                <name>Position 691</name>
            </trkpt>
            <trkpt lon="5.23054361343384" lat="43.92707347869873">
                <ele>363.996338</ele>
                <time>2011-05-29T14:30:54.000Z</time>
                <name>Position 692</name>
            </trkpt>
            <trkpt lon="5.23067235946655" lat="43.92688035964966">
                <ele>360.151123</ele>
                <time>2011-05-29T14:31:10.000Z</time>
                <name>Position 693</name>
            </trkpt>
            <trkpt lon="5.23075819015503" lat="43.92670869827271">
                <ele>357.747803</ele>
                <time>2011-05-29T14:31:26.000Z</time>
                <name>Position 694</name>
            </trkpt>
            <trkpt lon="5.23082256317139" lat="43.92649412155151">
                <ele>355.825195</ele>
                <time>2011-05-29T14:31:41.000Z</time>
                <name>Position 695</name>
            </trkpt>
            <trkpt lon="5.23082256317139" lat="43.92634391784668">
                <ele>354.86377</ele>
                <time>2011-05-29T14:31:54.000Z</time>
                <name>Position 696</name>
            </trkpt>
            <trkpt lon="5.23084402084351" lat="43.92612934112549">
                <ele>352.941162</ele>
                <time>2011-05-29T14:32:09.000Z</time>
                <name>Position 697</name>
            </trkpt>
            <trkpt lon="5.23082256317139" lat="43.92604351043701">
                <ele>352.941162</ele>
                <time>2011-05-29T14:32:18.000Z</time>
                <name>Position 698</name>
            </trkpt>
            <trkpt lon="5.23062944412231" lat="43.9259147644043">
                <ele>351.499146</ele>
                <time>2011-05-29T14:32:33.000Z</time>
                <name>Position 699</name>
            </trkpt>
            <trkpt lon="5.23056507110596" lat="43.92589330673218">
                <ele>350.537842</ele>
                <time>2011-05-29T14:32:37.000Z</time>
                <name>Position 700</name>
            </trkpt>
            <trkpt lon="5.2305006980896" lat="43.92587184906006">
                <ele>348.615234</ele>
                <time>2011-05-29T14:32:41.000Z</time>
                <name>Position 701</name>
            </trkpt>
            <trkpt lon="5.23026466369629" lat="43.9258074760437">
                <ele>343.327881</ele>
                <time>2011-05-29T14:32:55.000Z</time>
                <name>Position 702</name>
            </trkpt>
            <trkpt lon="5.23002862930298" lat="43.92570018768311">
                <ele>341.405273</ele>
                <time>2011-05-29T14:33:08.000Z</time>
                <name>Position 703</name>
            </trkpt>
            <trkpt lon="5.22974967956543" lat="43.92563581466675">
                <ele>341.885986</ele>
                <time>2011-05-29T14:33:24.000Z</time>
                <name>Position 704</name>
            </trkpt>
            <trkpt lon="5.2294921875" lat="43.92559289932251">
                <ele>339.002075</ele>
                <time>2011-05-29T14:33:40.000Z</time>
                <name>Position 705</name>
            </trkpt>
            <trkpt lon="5.22929906845093" lat="43.92559289932251">
                <ele>337.560059</ele>
                <time>2011-05-29T14:33:52.000Z</time>
                <name>Position 706</name>
            </trkpt>
            <trkpt lon="5.22921323776245" lat="43.92559289932251">
                <ele>338.521484</ele>
                <time>2011-05-29T14:34:09.000Z</time>
                <name>Position 707</name>
            </trkpt>
            <trkpt lon="5.22917032241821" lat="43.92554998397827">
                <ele>339.002075</ele>
                <time>2011-05-29T14:34:20.000Z</time>
                <name>Position 708</name>
            </trkpt>
            <trkpt lon="5.22914886474609" lat="43.92554998397827">
                <ele>338.521484</ele>
                <time>2011-05-29T14:34:34.000Z</time>
                <name>Position 709</name>
            </trkpt>
            <trkpt lon="5.22899866104126" lat="43.92554998397827">
                <ele>338.521484</ele>
                <time>2011-05-29T14:34:46.000Z</time>
                <name>Position 710</name>
            </trkpt>
            <trkpt lon="5.22886991500854" lat="43.92554998397827">
                <ele>338.040771</ele>
                <time>2011-05-29T14:34:54.000Z</time>
                <name>Position 711</name>
            </trkpt>
            <trkpt lon="5.22867679595947" lat="43.92552852630615">
                <ele>336.598877</ele>
                <time>2011-05-29T14:35:08.000Z</time>
                <name>Position 712</name>
            </trkpt>
            <trkpt lon="5.22846221923828" lat="43.92552852630615">
                <ele>333.714722</ele>
                <time>2011-05-29T14:35:22.000Z</time>
                <name>Position 713</name>
            </trkpt>
            <trkpt lon="5.22833347320557" lat="43.92548561096191">
                <ele>332.272827</ele>
                <time>2011-05-29T14:35:29.000Z</time>
                <name>Position 714</name>
            </trkpt>
            <trkpt lon="5.22831201553345" lat="43.9254641532898">
                <ele>331.311523</ele>
                <time>2011-05-29T14:35:33.000Z</time>
                <name>Position 715</name>
            </trkpt>
            <trkpt lon="5.22831201553345" lat="43.92544269561768">
                <ele>330.830933</ele>
                <time>2011-05-29T14:35:35.000Z</time>
                <name>Position 716</name>
            </trkpt>
            <trkpt lon="5.2283763885498" lat="43.92539978027344">
                <ele>329.869507</ele>
                <time>2011-05-29T14:35:44.000Z</time>
                <name>Position 717</name>
            </trkpt>
            <trkpt lon="5.228590965271" lat="43.92537832260132">
                <ele>327.466187</ele>
                <time>2011-05-29T14:35:57.000Z</time>
                <name>Position 718</name>
            </trkpt>
            <trkpt lon="5.22884845733643" lat="43.92537832260132">
                <ele>323.620972</ele>
                <time>2011-05-29T14:36:12.000Z</time>
                <name>Position 719</name>
            </trkpt>
            <trkpt lon="5.22897720336914" lat="43.9253568649292">
                <ele>319.775635</ele>
                <time>2011-05-29T14:36:20.000Z</time>
                <name>Position 720</name>
            </trkpt>
            <trkpt lon="5.22914886474609" lat="43.92531394958496">
                <ele>319.295044</ele>
                <time>2011-05-29T14:36:30.000Z</time>
                <name>Position 721</name>
            </trkpt>
            <trkpt lon="5.22912740707397" lat="43.9252495765686">
                <ele>317.853027</ele>
                <time>2011-05-29T14:36:37.000Z</time>
                <name>Position 722</name>
            </trkpt>
            <trkpt lon="5.22895574569702" lat="43.92518520355225">
                <ele>314.007813</ele>
                <time>2011-05-29T14:36:49.000Z</time>
                <name>Position 723</name>
            </trkpt>
            <trkpt lon="5.22884845733643" lat="43.92509937286377">
                <ele>311.604492</ele>
                <time>2011-05-29T14:37:04.000Z</time>
                <name>Position 724</name>
            </trkpt>
            <trkpt lon="5.22895574569702" lat="43.92505645751953">
                <ele>307.759277</ele>
                <time>2011-05-29T14:37:19.000Z</time>
                <name>Position 725</name>
            </trkpt>
            <trkpt lon="5.22906303405762" lat="43.92501354217529">
                <ele>306.317261</ele>
                <time>2011-05-29T14:37:29.000Z</time>
                <name>Position 726</name>
            </trkpt>
            <trkpt lon="5.22919178009033" lat="43.92497062683106">
                <ele>304.394653</ele>
                <time>2011-05-29T14:37:41.000Z</time>
                <name>Position 727</name>
            </trkpt>
            <trkpt lon="5.22929906845093" lat="43.9249062538147">
                <ele>301.991333</ele>
                <time>2011-05-29T14:37:53.000Z</time>
                <name>Position 728</name>
            </trkpt>
            <trkpt lon="5.22942781448364" lat="43.92486333847046">
                <ele>298.146118</ele>
                <time>2011-05-29T14:38:02.000Z</time>
                <name>Position 729</name>
            </trkpt>
            <trkpt lon="5.22951364517212" lat="43.92477750778198">
                <ele>296.704102</ele>
                <time>2011-05-29T14:38:14.000Z</time>
                <name>Position 730</name>
            </trkpt>
            <trkpt lon="5.22951364517212" lat="43.92473459243774">
                <ele>297.184692</ele>
                <time>2011-05-29T14:38:18.000Z</time>
                <name>Position 731</name>
            </trkpt>
            <trkpt lon="5.22957801818848" lat="43.92458438873291">
                <ele>298.146118</ele>
                <time>2011-05-29T14:38:32.000Z</time>
                <name>Position 732</name>
            </trkpt>
            <trkpt lon="5.22964239120483" lat="43.92452001571655">
                <ele>297.184692</ele>
                <time>2011-05-29T14:38:44.000Z</time>
                <name>Position 733</name>
            </trkpt>
            <trkpt lon="5.22977113723755" lat="43.92441272735596">
                <ele>295.742676</ele>
                <time>2011-05-29T14:38:58.000Z</time>
                <name>Position 734</name>
            </trkpt>
            <trkpt lon="5.22989988327026" lat="43.92432689666748">
                <ele>293.339355</ele>
                <time>2011-05-29T14:39:11.000Z</time>
                <name>Position 735</name>
            </trkpt>
            <trkpt lon="5.22996425628662" lat="43.92428398132324">
                <ele>292.378174</ele>
                <time>2011-05-29T14:39:16.000Z</time>
                <name>Position 736</name>
            </trkpt>
            <trkpt lon="5.23007154464722" lat="43.92419815063477">
                <ele>289.494141</ele>
                <time>2011-05-29T14:39:28.000Z</time>
                <name>Position 737</name>
            </trkpt>
            <trkpt lon="5.23015737533569" lat="43.92413377761841">
                <ele>288.532959</ele>
                <time>2011-05-29T14:39:34.000Z</time>
                <name>Position 738</name>
            </trkpt>
            <trkpt lon="5.23022174835205" lat="43.92398357391357">
                <ele>286.129517</ele>
                <time>2011-05-29T14:39:50.000Z</time>
                <name>Position 739</name>
            </trkpt>
            <trkpt lon="5.23024320602417" lat="43.92394065856934">
                <ele>285.648804</ele>
                <time>2011-05-29T14:39:55.000Z</time>
                <name>Position 740</name>
            </trkpt>
            <trkpt lon="5.23011445999146" lat="43.9237904548645">
                <ele>287.09082</ele>
                <time>2011-05-29T14:40:08.000Z</time>
                <name>Position 741</name>
            </trkpt>
            <trkpt lon="5.2299427986145" lat="43.92361879348755">
                <ele>287.09082</ele>
                <time>2011-05-29T14:40:22.000Z</time>
                <name>Position 742</name>
            </trkpt>
            <trkpt lon="5.22992134094238" lat="43.92359733581543">
                <ele>287.571411</ele>
                <time>2011-05-29T14:40:25.000Z</time>
                <name>Position 743</name>
            </trkpt>
            <trkpt lon="5.22983551025391" lat="43.92346858978272">
                <ele>287.571411</ele>
                <time>2011-05-29T14:40:36.000Z</time>
                <name>Position 744</name>
            </trkpt>
            <trkpt lon="5.22979259490967" lat="43.92327547073364">
                <ele>288.052246</ele>
                <time>2011-05-29T14:40:50.000Z</time>
                <name>Position 745</name>
            </trkpt>
            <trkpt lon="5.22979259490967" lat="43.9232325553894">
                <ele>287.09082</ele>
                <time>2011-05-29T14:40:53.000Z</time>
                <name>Position 746</name>
            </trkpt>
            <trkpt lon="5.22981405258179" lat="43.92318964004517">
                <ele>286.129517</ele>
                <time>2011-05-29T14:40:57.000Z</time>
                <name>Position 747</name>
            </trkpt>
            <trkpt lon="5.22983551025391" lat="43.92310380935669">
                <ele>285.168213</ele>
                <time>2011-05-29T14:41:05.000Z</time>
                <name>Position 748</name>
            </trkpt>
            <trkpt lon="5.22985696792603" lat="43.92306089401245">
                <ele>285.648804</ele>
                <time>2011-05-29T14:41:09.000Z</time>
                <name>Position 749</name>
            </trkpt>
            <trkpt lon="5.22987842559814" lat="43.92295360565186">
                <ele>285.168213</ele>
                <time>2011-05-29T14:41:19.000Z</time>
                <name>Position 750</name>
            </trkpt>
            <trkpt lon="5.22989988327026" lat="43.92291069030762">
                <ele>285.168213</ele>
                <time>2011-05-29T14:41:23.000Z</time>
                <name>Position 751</name>
            </trkpt>
            <trkpt lon="5.22987842559814" lat="43.92280340194702">
                <ele>284.687622</ele>
                <time>2011-05-29T14:41:31.000Z</time>
                <name>Position 752</name>
            </trkpt>
            <trkpt lon="5.22985696792603" lat="43.92271757125855">
                <ele>283.245605</ele>
                <time>2011-05-29T14:41:40.000Z</time>
                <name>Position 753</name>
            </trkpt>
            <trkpt lon="5.22981405258179" lat="43.92256736755371">
                <ele>279.400269</ele>
                <time>2011-05-29T14:41:55.000Z</time>
                <name>Position 754</name>
            </trkpt>
            <trkpt lon="5.22981405258179" lat="43.92254590988159">
                <ele>278.919678</ele>
                <time>2011-05-29T14:41:57.000Z</time>
                <name>Position 755</name>
            </trkpt>
            <trkpt lon="5.22977113723755" lat="43.92246007919312">
                <ele>276.99707</ele>
                <time>2011-05-29T14:42:03.000Z</time>
                <name>Position 756</name>
            </trkpt>
            <trkpt lon="5.22977113723755" lat="43.922438621521">
                <ele>275.555054</ele>
                <time>2011-05-29T14:42:07.000Z</time>
                <name>Position 757</name>
            </trkpt>
            <trkpt lon="5.22972822189331" lat="43.92237424850464">
                <ele>274.113037</ele>
                <time>2011-05-29T14:42:11.000Z</time>
                <name>Position 758</name>
            </trkpt>
            <trkpt lon="5.22972822189331" lat="43.92235279083252">
                <ele>273.632446</ele>
                <time>2011-05-29T14:42:13.000Z</time>
                <name>Position 759</name>
            </trkpt>
            <trkpt lon="5.22970676422119" lat="43.92222404479981">
                <ele>272.19043</ele>
                <time>2011-05-29T14:42:24.000Z</time>
                <name>Position 760</name>
            </trkpt>
            <trkpt lon="5.22966384887695" lat="43.92209529876709">
                <ele>271.229126</ele>
                <time>2011-05-29T14:42:41.000Z</time>
                <name>Position 761</name>
            </trkpt>
            <trkpt lon="5.22964239120483" lat="43.92194509506226">
                <ele>270.748413</ele>
                <time>2011-05-29T14:42:54.000Z</time>
                <name>Position 762</name>
            </trkpt>
            <trkpt lon="5.22968530654907" lat="43.9217734336853">
                <ele>271.229126</ele>
                <time>2011-05-29T14:43:07.000Z</time>
                <name>Position 763</name>
            </trkpt>
            <trkpt lon="5.22972822189331" lat="43.92168760299683">
                <ele>268.345093</ele>
                <time>2011-05-29T14:43:16.000Z</time>
                <name>Position 764</name>
            </trkpt>
            <trkpt lon="5.22985696792603" lat="43.92155885696411">
                <ele>265.461304</ele>
                <time>2011-05-29T14:43:30.000Z</time>
                <name>Position 765</name>
            </trkpt>
            <trkpt lon="5.23000717163086" lat="43.92151594161987">
                <ele>261.615967</ele>
                <time>2011-05-29T14:43:40.000Z</time>
                <name>Position 766</name>
            </trkpt>
            <trkpt lon="5.2300500869751" lat="43.92149448394775">
                <ele>261.135254</ele>
                <time>2011-05-29T14:43:42.000Z</time>
                <name>Position 767</name>
            </trkpt>
            <trkpt lon="5.23009300231934" lat="43.92147302627564">
                <ele>261.135254</ele>
                <time>2011-05-29T14:43:44.000Z</time>
                <name>Position 768</name>
            </trkpt>
            <trkpt lon="5.23022174835205" lat="43.92145156860352">
                <ele>257.290039</ele>
                <time>2011-05-29T14:43:53.000Z</time>
                <name>Position 769</name>
            </trkpt>
            <trkpt lon="5.23045778274536" lat="43.92138719558716">
                <ele>251.522095</ele>
                <time>2011-05-29T14:44:07.000Z</time>
                <name>Position 770</name>
            </trkpt>
            <trkpt lon="5.23071527481079" lat="43.92121553421021">
                <ele>251.041382</ele>
                <time>2011-05-29T14:44:24.000Z</time>
                <name>Position 771</name>
            </trkpt>
            <trkpt lon="5.23075819015503" lat="43.92119407653809">
                <ele>251.041382</ele>
                <time>2011-05-29T14:44:28.000Z</time>
                <name>Position 772</name>
            </trkpt>
            <trkpt lon="5.23090839385986" lat="43.92100095748901">
                <ele>250.560791</ele>
                <time>2011-05-29T14:44:46.000Z</time>
                <name>Position 773</name>
            </trkpt>
            <trkpt lon="5.23108005523682" lat="43.92082929611206">
                <ele>250.0802</ele>
                <time>2011-05-29T14:45:01.000Z</time>
                <name>Position 774</name>
            </trkpt>
            <trkpt lon="5.23120880126953" lat="43.9207649230957">
                <ele>249.599487</ele>
                <time>2011-05-29T14:45:09.000Z</time>
                <name>Position 775</name>
            </trkpt>
            <trkpt lon="5.23142337799072" lat="43.92065763473511">
                <ele>248.638184</ele>
                <time>2011-05-29T14:45:23.000Z</time>
                <name>Position 776</name>
            </trkpt>
            <trkpt lon="5.23153066635132" lat="43.92061471939087">
                <ele>247.676758</ele>
                <time>2011-05-29T14:45:30.000Z</time>
                <name>Position 777</name>
            </trkpt>
            <trkpt lon="5.23180961608887" lat="43.92050743103027">
                <ele>244.312256</ele>
                <time>2011-05-29T14:45:46.000Z</time>
                <name>Position 778</name>
            </trkpt>
            <trkpt lon="5.23200273513794" lat="43.92037868499756">
                <ele>239.505493</ele>
                <time>2011-05-29T14:46:00.000Z</time>
                <name>Position 779</name>
            </trkpt>
            <trkpt lon="5.23217439651489" lat="43.92024993896484">
                <ele>233.737671</ele>
                <time>2011-05-29T14:46:13.000Z</time>
                <name>Position 780</name>
            </trkpt>
            <trkpt lon="5.23238897323608" lat="43.92009973526001">
                <ele>232.295776</ele>
                <time>2011-05-29T14:46:29.000Z</time>
                <name>Position 781</name>
            </trkpt>
            <trkpt lon="5.23264646530151" lat="43.91999244689941">
                <ele>231.334351</ele>
                <time>2011-05-29T14:46:45.000Z</time>
                <name>Position 782</name>
            </trkpt>
            <trkpt lon="5.23277521133423" lat="43.91994953155518">
                <ele>229.411743</ele>
                <time>2011-05-29T14:46:54.000Z</time>
                <name>Position 783</name>
            </trkpt>
            <trkpt lon="5.23294687271118" lat="43.91984224319458">
                <ele>226.047119</ele>
                <time>2011-05-29T14:47:07.000Z</time>
                <name>Position 784</name>
            </trkpt>
            <trkpt lon="5.2329683303833" lat="43.91984224319458">
                <ele>225.566528</ele>
                <time>2011-05-29T14:47:09.000Z</time>
                <name>Position 785</name>
            </trkpt>
            <trkpt lon="5.23303270339966" lat="43.91977787017822">
                <ele>225.085938</ele>
                <time>2011-05-29T14:47:15.000Z</time>
                <name>Position 786</name>
            </trkpt>
            <trkpt lon="5.23305416107178" lat="43.9197564125061">
                <ele>225.085938</ele>
                <time>2011-05-29T14:47:18.000Z</time>
                <name>Position 787</name>
            </trkpt>
            <trkpt lon="5.2330756187439" lat="43.91960620880127">
                <ele>226.047119</ele>
                <time>2011-05-29T14:47:32.000Z</time>
                <name>Position 788</name>
            </trkpt>
            <trkpt lon="5.23301124572754" lat="43.9194130897522">
                <ele>223.163208</ele>
                <time>2011-05-29T14:47:44.000Z</time>
                <name>Position 789</name>
            </trkpt>
            <trkpt lon="5.23290395736694" lat="43.91921997070313">
                <ele>220.759888</ele>
                <time>2011-05-29T14:47:58.000Z</time>
                <name>Position 790</name>
            </trkpt>
            <trkpt lon="5.23286104202271" lat="43.91917705535889">
                <ele>219.798584</ele>
                <time>2011-05-29T14:48:03.000Z</time>
                <name>Position 791</name>
            </trkpt>
            <trkpt lon="5.23275375366211" lat="43.91900539398193">
                <ele>219.798584</ele>
                <time>2011-05-29T14:48:17.000Z</time>
                <name>Position 792</name>
            </trkpt>
            <trkpt lon="5.23260354995728" lat="43.91883373260498">
                <ele>218.356567</ele>
                <time>2011-05-29T14:48:32.000Z</time>
                <name>Position 793</name>
            </trkpt>
            <trkpt lon="5.23238897323608" lat="43.91866207122803">
                <ele>221.240601</ele>
                <time>2011-05-29T14:48:47.000Z</time>
                <name>Position 794</name>
            </trkpt>
            <trkpt lon="5.23215293884277" lat="43.91846895217896">
                <ele>220.759888</ele>
                <time>2011-05-29T14:49:05.000Z</time>
                <name>Position 795</name>
            </trkpt>
            <trkpt lon="5.2319598197937" lat="43.91834020614624">
                <ele>221.721191</ele>
                <time>2011-05-29T14:49:20.000Z</time>
                <name>Position 796</name>
            </trkpt>
            <trkpt lon="5.23178815841675" lat="43.91816854476929">
                <ele>223.163208</ele>
                <time>2011-05-29T14:49:37.000Z</time>
                <name>Position 797</name>
            </trkpt>
            <trkpt lon="5.23172378540039" lat="43.91799688339233">
                <ele>222.201782</ele>
                <time>2011-05-29T14:49:50.000Z</time>
                <name>Position 798</name>
            </trkpt>
            <trkpt lon="5.23168087005615" lat="43.9178466796875">
                <ele>218.356567</ele>
                <time>2011-05-29T14:50:18.000Z</time>
                <name>Position 799</name>
            </trkpt>
            <trkpt lon="5.23153066635132" lat="43.91778230667114">
                <ele>216.43396</ele>
                <time>2011-05-29T14:50:29.000Z</time>
                <name>Position 800</name>
            </trkpt>
            <trkpt lon="5.23131608963013" lat="43.91767501831055">
                <ele>216.43396</ele>
                <time>2011-05-29T14:50:44.000Z</time>
                <name>Position 801</name>
            </trkpt>
            <trkpt lon="5.23112297058105" lat="43.91750335693359">
                <ele>217.875977</ele>
                <time>2011-05-29T14:51:01.000Z</time>
                <name>Position 802</name>
            </trkpt>
            <trkpt lon="5.2310585975647" lat="43.91737461090088">
                <ele>217.875977</ele>
                <time>2011-05-29T14:51:13.000Z</time>
                <name>Position 803</name>
            </trkpt>
            <trkpt lon="5.2309513092041" lat="43.9172887802124">
                <ele>217.875977</ele>
                <time>2011-05-29T14:51:24.000Z</time>
                <name>Position 804</name>
            </trkpt>
            <trkpt lon="5.23082256317139" lat="43.91720294952393">
                <ele>215.953247</ele>
                <time>2011-05-29T14:51:35.000Z</time>
                <name>Position 805</name>
            </trkpt>
            <trkpt lon="5.23065090179443" lat="43.91707420349121">
                <ele>212.588623</ele>
                <time>2011-05-29T14:51:49.000Z</time>
                <name>Position 806</name>
            </trkpt>
            <trkpt lon="5.23047924041748" lat="43.91698837280273">
                <ele>210.666016</ele>
                <time>2011-05-29T14:52:02.000Z</time>
                <name>Position 807</name>
            </trkpt>
            <trkpt lon="5.23037195205688" lat="43.91690254211426">
                <ele>209.224121</ele>
                <time>2011-05-29T14:52:11.000Z</time>
                <name>Position 808</name>
            </trkpt>
            <trkpt lon="5.23022174835205" lat="43.9168381690979">
                <ele>206.340088</ele>
                <time>2011-05-29T14:52:21.000Z</time>
                <name>Position 809</name>
            </trkpt>
            <trkpt lon="5.2300500869751" lat="43.91679525375366">
                <ele>204.898071</ele>
                <time>2011-05-29T14:52:32.000Z</time>
                <name>Position 810</name>
            </trkpt>
            <trkpt lon="5.23000717163086" lat="43.91679525375366">
                <ele>204.41748</ele>
                <time>2011-05-29T14:52:36.000Z</time>
                <name>Position 811</name>
            </trkpt>
            <trkpt lon="5.22983551025391" lat="43.91670942306519">
                <ele>204.41748</ele>
                <time>2011-05-29T14:52:44.000Z</time>
                <name>Position 812</name>
            </trkpt>
            <trkpt lon="5.22972822189331" lat="43.91668796539307">
                <ele>204.898071</ele>
                <time>2011-05-29T14:52:50.000Z</time>
                <name>Position 813</name>
            </trkpt>
            <trkpt lon="5.22968530654907" lat="43.91668796539307">
                <ele>204.898071</ele>
                <time>2011-05-29T14:52:53.000Z</time>
                <name>Position 814</name>
            </trkpt>
            <trkpt lon="5.22953510284424" lat="43.91666650772095">
                <ele>204.41748</ele>
                <time>2011-05-29T14:53:02.000Z</time>
                <name>Position 815</name>
            </trkpt>
            <trkpt lon="5.22940635681152" lat="43.91660213470459">
                <ele>206.340088</ele>
                <time>2011-05-29T14:53:14.000Z</time>
                <name>Position 816</name>
            </trkpt>
            <trkpt lon="5.22936344146729" lat="43.91662359237671">
                <ele>206.820679</ele>
                <time>2011-05-29T14:53:25.000Z</time>
                <name>Position 817</name>
            </trkpt>
            <trkpt lon="5.22929906845093" lat="43.91660213470459">
                <ele>207.301392</ele>
                <time>2011-05-29T14:53:29.000Z</time>
                <name>Position 818</name>
            </trkpt>
            <trkpt lon="5.22910594940186" lat="43.91658067703247">
                <ele>208.262817</ele>
                <time>2011-05-29T14:53:41.000Z</time>
                <name>Position 819</name>
            </trkpt>
            <trkpt lon="5.22906303405762" lat="43.91658067703247">
                <ele>208.262817</ele>
                <time>2011-05-29T14:53:43.000Z</time>
                <name>Position 820</name>
            </trkpt>
            <trkpt lon="5.22895574569702" lat="43.91653776168823">
                <ele>208.262817</ele>
                <time>2011-05-29T14:53:55.000Z</time>
                <name>Position 821</name>
            </trkpt>
            <trkpt lon="5.22895574569702" lat="43.91653776168823">
                <ele>208.262817</ele>
                <time>2011-05-29T14:54:20.000Z</time>
                <name>Position 822</name>
            </trkpt>
            <trkpt lon="5.2289342880249" lat="43.91651630401611">
                <ele>208.262817</ele>
                <time>2011-05-29T14:54:23.000Z</time>
                <name>Position 823</name>
            </trkpt>
            <trkpt lon="5.22895574569702" lat="43.91636610031128">
                <ele>206.820679</ele>
                <time>2011-05-29T14:54:37.000Z</time>
                <name>Position 824</name>
            </trkpt>
            <trkpt lon="5.22899866104126" lat="43.91621589660645">
                <ele>203.93689</ele>
                <time>2011-05-29T14:54:52.000Z</time>
                <name>Position 825</name>
            </trkpt>
            <trkpt lon="5.22899866104126" lat="43.91615152359009">
                <ele>203.456177</ele>
                <time>2011-05-29T14:54:59.000Z</time>
                <name>Position 826</name>
            </trkpt>
            <trkpt lon="5.22884845733643" lat="43.91600131988525">
                <ele>203.456177</ele>
                <time>2011-05-29T14:55:13.000Z</time>
                <name>Position 827</name>
            </trkpt>
            <trkpt lon="5.22865533828735" lat="43.91587257385254">
                <ele>202.494873</ele>
                <time>2011-05-29T14:55:45.000Z</time>
                <name>Position 828</name>
            </trkpt>
            <trkpt lon="5.22852659225464" lat="43.91576528549194">
                <ele>202.014282</ele>
                <time>2011-05-29T14:55:57.000Z</time>
                <name>Position 829</name>
            </trkpt>
            <trkpt lon="5.22841930389404" lat="43.91574382781982">
                <ele>201.533569</ele>
                <time>2011-05-29T14:56:15.000Z</time>
                <name>Position 830</name>
            </trkpt>
            <trkpt lon="5.22844076156616" lat="43.91572237014771">
                <ele>200.091675</ele>
                <time>2011-05-29T14:56:40.000Z</time>
                <name>Position 831</name>
            </trkpt>
            <trkpt lon="5.22846221923828" lat="43.91565799713135">
                <ele>199.61084</ele>
                <time>2011-05-29T14:56:44.000Z</time>
                <name>Position 832</name>
            </trkpt>
            <trkpt lon="5.22850513458252" lat="43.91557216644287">
                <ele>198.649536</ele>
                <time>2011-05-29T14:56:56.000Z</time>
                <name>Position 833</name>
            </trkpt>
            <trkpt lon="5.22854804992676" lat="43.9154863357544">
                <ele>197.20752</ele>
                <time>2011-05-29T14:57:04.000Z</time>
                <name>Position 834</name>
            </trkpt>
            <trkpt lon="5.22856950759888" lat="43.91535758972168">
                <ele>195.284912</ele>
                <time>2011-05-29T14:57:15.000Z</time>
                <name>Position 835</name>
            </trkpt>
            <trkpt lon="5.22856950759888" lat="43.91525030136108">
                <ele>194.804321</ele>
                <time>2011-05-29T14:57:22.000Z</time>
                <name>Position 836</name>
            </trkpt>
            <trkpt lon="5.22856950759888" lat="43.91505718231201">
                <ele>194.32373</ele>
                <time>2011-05-29T14:57:35.000Z</time>
                <name>Position 837</name>
            </trkpt>
            <trkpt lon="5.22856950759888" lat="43.91494989395142">
                <ele>194.32373</ele>
                <time>2011-05-29T14:57:41.000Z</time>
                <name>Position 838</name>
            </trkpt>
            <trkpt lon="5.22850513458252" lat="43.91464948654175">
                <ele>200.572266</ele>
                <time>2011-05-29T14:57:58.000Z</time>
                <name>Position 839</name>
            </trkpt>
            <trkpt lon="5.22852659225464" lat="43.91445636749268">
                <ele>201.052856</ele>
                <time>2011-05-29T14:58:13.000Z</time>
                <name>Position 840</name>
            </trkpt>
            <trkpt lon="5.22865533828735" lat="43.9142632484436">
                <ele>200.572266</ele>
                <time>2011-05-29T14:58:30.000Z</time>
                <name>Position 841</name>
            </trkpt>
            <trkpt lon="5.22878408432007" lat="43.91409158706665">
                <ele>199.130127</ele>
                <time>2011-05-29T14:58:43.000Z</time>
                <name>Position 842</name>
            </trkpt>
            <trkpt lon="5.22884845733643" lat="43.91400575637817">
                <ele>199.61084</ele>
                <time>2011-05-29T14:58:55.000Z</time>
                <name>Position 843</name>
            </trkpt>
            <trkpt lon="5.22886991500854" lat="43.91400575637817">
                <ele>199.61084</ele>
                <time>2011-05-29T14:59:01.000Z</time>
                <name>Position 844</name>
            </trkpt>
            <trkpt lon="5.2290415763855" lat="43.91379117965698">
                <ele>200.091675</ele>
                <time>2011-05-29T14:59:17.000Z</time>
                <name>Position 845</name>
            </trkpt>
            <trkpt lon="5.22923469543457" lat="43.91355514526367">
                <ele>200.091675</ele>
                <time>2011-05-29T14:59:36.000Z</time>
                <name>Position 846</name>
            </trkpt>
            <trkpt lon="5.22934198379517" lat="43.91340494155884">
                <ele>199.61084</ele>
                <time>2011-05-29T14:59:50.000Z</time>
                <name>Position 847</name>
            </trkpt>
            <trkpt lon="5.22944927215576" lat="43.91319036483765">
                <ele>197.20752</ele>
                <time>2011-05-29T15:00:06.000Z</time>
                <name>Position 848</name>
            </trkpt>
            <trkpt lon="5.2294921875" lat="43.91308307647705">
                <ele>195.284912</ele>
                <time>2011-05-29T15:00:16.000Z</time>
                <name>Position 849</name>
            </trkpt>
            <trkpt lon="5.22953510284424" lat="43.91282558441162">
                <ele>195.765625</ele>
                <time>2011-05-29T15:00:34.000Z</time>
                <name>Position 850</name>
            </trkpt>
            <trkpt lon="5.22957801818848" lat="43.91258955001831">
                <ele>195.765625</ele>
                <time>2011-05-29T15:00:53.000Z</time>
                <name>Position 851</name>
            </trkpt>
            <trkpt lon="5.22957801818848" lat="43.91256809234619">
                <ele>195.765625</ele>
                <time>2011-05-29T15:00:56.000Z</time>
                <name>Position 852</name>
            </trkpt>
            <trkpt lon="5.22964239120483" lat="43.9124608039856">
                <ele>198.168945</ele>
                <time>2011-05-29T15:01:07.000Z</time>
                <name>Position 853</name>
            </trkpt>
            <trkpt lon="5.22968530654907" lat="43.91241788864136">
                <ele>198.649536</ele>
                <time>2011-05-29T15:01:11.000Z</time>
                <name>Position 854</name>
            </trkpt>
            <trkpt lon="5.22983551025391" lat="43.91228914260864">
                <ele>197.20752</ele>
                <time>2011-05-29T15:01:24.000Z</time>
                <name>Position 855</name>
            </trkpt>
            <trkpt lon="5.2299427986145" lat="43.91216039657593">
                <ele>193.843018</ele>
                <time>2011-05-29T15:01:37.000Z</time>
                <name>Position 856</name>
            </trkpt>
            <trkpt lon="5.22996425628662" lat="43.91205310821533">
                <ele>193.362305</ele>
                <time>2011-05-29T15:01:47.000Z</time>
                <name>Position 857</name>
            </trkpt>
            <trkpt lon="5.22996425628662" lat="43.91192436218262">
                <ele>192.401123</ele>
                <time>2011-05-29T15:01:58.000Z</time>
                <name>Position 858</name>
            </trkpt>
            <trkpt lon="5.2299427986145" lat="43.91175270080566">
                <ele>190.958984</ele>
                <time>2011-05-29T15:02:12.000Z</time>
                <name>Position 859</name>
            </trkpt>
            <trkpt lon="5.22989988327026" lat="43.91162395477295">
                <ele>190.478394</ele>
                <time>2011-05-29T15:02:21.000Z</time>
                <name>Position 860</name>
            </trkpt>
            <trkpt lon="5.22989988327026" lat="43.91149520874023">
                <ele>188.075073</ele>
                <time>2011-05-29T15:02:33.000Z</time>
                <name>Position 861</name>
            </trkpt>
            <trkpt lon="5.22992134094238" lat="43.9113450050354">
                <ele>186.633179</ele>
                <time>2011-05-29T15:02:47.000Z</time>
                <name>Position 862</name>
            </trkpt>
            <trkpt lon="5.2299427986145" lat="43.91121625900269">
                <ele>186.152466</ele>
                <time>2011-05-29T15:02:57.000Z</time>
                <name>Position 863</name>
            </trkpt>
            <trkpt lon="5.22996425628662" lat="43.91115188598633">
                <ele>185.671753</ele>
                <time>2011-05-29T15:03:09.000Z</time>
                <name>Position 864</name>
            </trkpt>
            <trkpt lon="5.23000717163086" lat="43.91104459762573">
                <ele>185.191162</ele>
                <time>2011-05-29T15:03:19.000Z</time>
                <name>Position 865</name>
            </trkpt>
            <trkpt lon="5.23002862930298" lat="43.91095876693726">
                <ele>184.710571</ele>
                <time>2011-05-29T15:03:24.000Z</time>
                <name>Position 866</name>
            </trkpt>
        </trkseg>
    </trk>
</gpx>
